Observation data for Welch on 03/24/2019      Previous  Date  Next       Current Mesonet Observations  Soil Data  Daily Summary Page  Observations in Plain Language
KWE2 240500Z 19008KT 09/M05 A3002 RMK A01 T00891050  RH  037%=      5-min Rain = 0
KWE2 240501Z 19008KT 09/M05 A3002 RMK A01 T00871051  RH  037%=      5-min Rain = 0
KWE2 240502Z 19008KT 09/M05 A3002 RMK A01 T00861052  RH  037%=      5-min Rain = 0
KWE2 240503Z 19008KT 08/M06 A3002 RMK A01 T00821055  RH  037%=      5-min Rain = 0
KWE2 240504Z 19009KT 08/M05 A3002 RMK A01 T00801053  RH  038%=      5-min Rain = 0
KWE2 240505Z 19009KT 08/M05 A3002 RMK A01 T00831050  RH  039%=      5-min Rain = 0
KWE2 240506Z 19008KT 09/M05 A3002 RMK A01 T00851050  RH  038%=      5-min Rain = 0
KWE2 240507Z 20008KT 08/M05 A3003 RMK A01 T00841052  RH  038%=      5-min Rain = 0
KWE2 240508Z 20008KT 08/M05 A3003 RMK A01 T00821052  RH  038%=      5-min Rain = 0
KWE2 240509Z 19008KT 08/M05 A3003 RMK A01 T00811050  RH  039%=      5-min Rain = 0
KWE2 240510Z 19008KT 08/M05 A3003 RMK A01 T00821049  RH  039%=      5-min Rain = 0
KWE2 240511Z 19008KT 08/M05 A3003 RMK A01 T00831051  RH  038%=      5-min Rain = 0
KWE2 240512Z 19008KT 08/M05 A3003 RMK A01 T00831051  RH  038%=      5-min Rain = 0
KWE2 240513Z 19009KT 08/M05 A3003 RMK A01 T00831050  RH  039%=      5-min Rain = 0
KWE2 240514Z 19009KT 08/M05 A3003 RMK A01 T00841048  RH  039%=      5-min Rain = 0
KWE2 240515Z 19009KT 09/M05 A3003 RMK A01 T00851048  RH  039%=      5-min Rain = 0
KWE2 240516Z 19009KT 09/M05 A3003 RMK A01 T00851048  RH  038%=      5-min Rain = 0
KWE2 240517Z 20009KT 09/M05 A3003 RMK A01 T00851048  RH  039%=      5-min Rain = 0
KWE2 240518Z 20009KT 09/M05 A3003 RMK A01 T00851048  RH  039%=      5-min Rain = 0
KWE2 240519Z 20009KT 09/M05 A3003 RMK A01 T00851047  RH  039%=      5-min Rain = 0
KWE2 240520Z 20009KT 09/M05 A3003 RMK A01 T00851047  RH  039%=      5-min Rain = 0
KWE2 240521Z 20009KT 09/M05 A3003 RMK A01 T00851047  RH  039%=      5-min Rain = 0
KWE2 240522Z 20008KT 08/M05 A3003 RMK A01 T00841047  RH  039%=      5-min Rain = 0
KWE2 240523Z 21008KT 08/M05 A3003 RMK A01 T00821048  RH  039%=      5-min Rain = 0
KWE2 240524Z 21008KT 08/M05 A3003 RMK A01 T00801048  RH  040%=      5-min Rain = 0
KWE2 240525Z 21009KT 08/M05 A3003 RMK A01 T00791048  RH  040%=      5-min Rain = 0
KWE2 240526Z 21009KT 08/M05 A3003 RMK A01 T00781047  RH  041%=      5-min Rain = 0
KWE2 240527Z 21010KT 08/M05 A3003 RMK A01 T00781047  RH  041%=      5-min Rain = 0
KWE2 240528Z 21009KT 08/M05 A3003 RMK A01 T00781047  RH  041%=      5-min Rain = 0
KWE2 240529Z 21008KT 08/M05 A3003 RMK A01 T00771047  RH  041%=      5-min Rain = 0
KWE2 240530Z 21010KT 08/M05 A3003 RMK A01 T00761046  RH  042%=      5-min Rain = 0
KWE2 240531Z 21009KT 08/M05 A3003 RMK A01 T00761045  RH  042%=      5-min Rain = 0
KWE2 240532Z 21009KT 08/M04 A3003 RMK A01 T00781044  RH  042%=      5-min Rain = 0
KWE2 240533Z 21009KT 08/M04 A3003 RMK A01 T00791044  RH  042%=      5-min Rain = 0
KWE2 240534Z 21009KT 08/M04 A3003 RMK A01 T00791044  RH  041%=      5-min Rain = 0
KWE2 240535Z 21008KT 08/M04 A3003 RMK A01 T00791044  RH  041%=      5-min Rain = 0
KWE2 240536Z 21009KT 08/M04 A3003 RMK A01 T00791044  RH  041%=      5-min Rain = 0
KWE2 240537Z 20009KT 08/M04 A3003 RMK A01 T00791043  RH  042%=      5-min Rain = 0
KWE2 240538Z 21008KT 08/M04 A3003 RMK A01 T00791044  RH  042%=      5-min Rain = 0
KWE2 240539Z 20008KT 08/M04 A3003 RMK A01 T00781044  RH  042%=      5-min Rain = 0
KWE2 240540Z 21008KT 08/M05 A3003 RMK A01 T00781045  RH  041%=      5-min Rain = 0
KWE2 240541Z 21008KT 08/M05 A3003 RMK A01 T00761047  RH  041%=      5-min Rain = 0
KWE2 240542Z 21008KT 07/M05 A3003 RMK A01 T00741047  RH  042%=      5-min Rain = 0
KWE2 240543Z 21008KT 07/M05 A3003 RMK A01 T00731047  RH  042%=      5-min Rain = 0
KWE2 240544Z 21008KT 07/M05 A3003 RMK A01 T00721047  RH  043%=      5-min Rain = 0
KWE2 240545Z 21008KT 07/M05 A3003 RMK A01 T00721046  RH  043%=      5-min Rain = 0
KWE2 240546Z 21007KT 07/M05 A3003 RMK A01 T00721046  RH  043%=      5-min Rain = 0
KWE2 240547Z 21007KT 07/M05 A3003 RMK A01 T00711045  RH  043%=      5-min Rain = 0
KWE2 240548Z 21007KT 07/M04 A3003 RMK A01 T00721043  RH  044%=      5-min Rain = 0
KWE2 240549Z 21007KT 07/M04 A3003 RMK A01 T00741044  RH  043%=      5-min Rain = 0
KWE2 240550Z 21007KT 07/M05 A3003 RMK A01 T00731045  RH  043%=      5-min Rain = 0
KWE2 240551Z 21007KT 07/M05 A3003 RMK A01 T00721045  RH  043%=      5-min Rain = 0
KWE2 240552Z 21006KT 07/M05 A3003 RMK A01 T00711045  RH  043%=      5-min Rain = 0
KWE2 240553Z 21006KT 07/M05 A3003 RMK A01 T00701045  RH  044%=      5-min Rain = 0
KWE2 240554Z 21005KT 07/M04 A3003 RMK A01 T00701044  RH  044%=      5-min Rain = 0
KWE2 240555Z 21005KT 07/M04 A3003 RMK A01 T00701044  RH  044%=      5-min Rain = 0
KWE2 240556Z 21005KT 07/M04 A3003 RMK A01 T00701044  RH  044%=      5-min Rain = 0
KWE2 240557Z 21004KT 07/M04 A3003 RMK A01 T00701043  RH  044%=      5-min Rain = 0
KWE2 240558Z 21004KT 07/M04 A3003 RMK A01 T00701042  RH  045%=      5-min Rain = 0
KWE2 240559Z 21004KT 07/M04 A3003 RMK A01 T00701043  RH  044%=      5-min Rain = 0
KWE2 240600Z 21004KT 07/M04 A3003 RMK A01 T00701043  RH  044%=      5-min Rain = 0
KWE2 240601Z 21004KT 07/M04 A3003 RMK A01 T00691044  RH  044%=      5-min Rain = 0
KWE2 240602Z 21004KT 07/M04 A3003 RMK A01 T00691044  RH  045%=      5-min Rain = 0
KWE2 240603Z 21004KT 07/M04 A3003 RMK A01 T00681044  RH  045%=      5-min Rain = 0
KWE2 240604Z 22004KT 07/M04 A3003 RMK A01 T00681044  RH  045%=      5-min Rain = 0
KWE2 240605Z 22004KT 07/M04 A3003 RMK A01 T00681043  RH  045%=      5-min Rain = 0
KWE2 240606Z 22004KT 07/M04 A3003 RMK A01 T00681042  RH  045%=      5-min Rain = 0
KWE2 240607Z 22004KT 07/M04 A3003 RMK A01 T00691041  RH  045%=      5-min Rain = 0
KWE2 240608Z 22004KT 07/M04 A3003 RMK A01 T00701041  RH  045%=      5-min Rain = 0
KWE2 240609Z 22004KT 07/M04 A3003 RMK A01 T00721040  RH  045%=      5-min Rain = 0
KWE2 240610Z 22004KT 07/M04 A3003 RMK A01 T00731040  RH  045%=      5-min Rain = 0
KWE2 240611Z 23003KT 07/M04 A3003 RMK A01 T00731038  RH  045%=      5-min Rain = 0
KWE2 240612Z 23003KT 07/M04 A3003 RMK A01 T00731038  RH  045%=      5-min Rain = 0
KWE2 240613Z 23003KT 07/M04 A3002 RMK A01 T00741038  RH  045%=      5-min Rain = 0
KWE2 240614Z 23003KT 07/M04 A3002 RMK A01 T00741038  RH  045%=      5-min Rain = 0
KWE2 240615Z 23003KT 07/M04 A3002 RMK A01 T00741037  RH  045%=      5-min Rain = 0
KWE2 240616Z 23003KT 07/M04 A3002 RMK A01 T00731037  RH  045%=      5-min Rain = 0
KWE2 240617Z 23003KT 07/M04 A3002 RMK A01 T00741037  RH  045%=      5-min Rain = 0
KWE2 240618Z 23003KT 08/M04 A3002 RMK A01 T00751037  RH  045%=      5-min Rain = 0
KWE2 240619Z 22003KT 08/M04 A3002 RMK A01 T00751036  RH  045%=      5-min Rain = 0
KWE2 240620Z 23003KT 08/M04 A3002 RMK A01 T00751036  RH  045%=      5-min Rain = 0
KWE2 240621Z 23003KT 08/M04 A3002 RMK A01 T00751036  RH  045%=      5-min Rain = 0
KWE2 240622Z 22002KT 08/M04 A3002 RMK A01 T00751036  RH  045%=      5-min Rain = 0
KWE2 240623Z 22002KT 08/M04 A3002 RMK A01 T00751037  RH  045%=      5-min Rain = 0
KWE2 240624Z 22002KT 07/M04 A3002 RMK A01 T00741037  RH  045%=      5-min Rain = 0
KWE2 240625Z 21001KT 07/M04 A3002 RMK A01 T00741037  RH  045%=      5-min Rain = 0
KWE2 240626Z 18002KT 08/M04 A3002 RMK A01 T00751036  RH  045%=      5-min Rain = 0
KWE2 240627Z 20003KT 08/M04 A3002 RMK A01 T00761036  RH  045%=      5-min Rain = 0
KWE2 240628Z 21003KT 08/M04 A3002 RMK A01 T00761036  RH  045%=      5-min Rain = 0
KWE2 240629Z 22003KT 08/M04 A3002 RMK A01 T00761036  RH  045%=      5-min Rain = 0
KWE2 240630Z 22004KT 08/M04 A3002 RMK A01 T00771036  RH  045%=      5-min Rain = 0
KWE2 240631Z 21004KT 08/M04 A3002 RMK A01 T00781035  RH  045%=      5-min Rain = 0
KWE2 240632Z 21003KT 08/M04 A3002 RMK A01 T00791035  RH  044%=      5-min Rain = 0
KWE2 240633Z 22003KT 08/M04 A3002 RMK A01 T00801035  RH  044%=      5-min Rain = 0
KWE2 240634Z 21003KT 08/M04 A3002 RMK A01 T00811036  RH  044%=      5-min Rain = 0
KWE2 240635Z 21003KT 08/M04 A3002 RMK A01 T00821035  RH  043%=      5-min Rain = 0
KWE2 240636Z 20003KT 08/M04 A3002 RMK A01 T00821036  RH  043%=      5-min Rain = 0
KWE2 240637Z 20003KT 08/M04 A3002 RMK A01 T00821036  RH  043%=      5-min Rain = 0
KWE2 240638Z 21003KT 08/M04 A3002 RMK A01 T00811036  RH  043%=      5-min Rain = 0
KWE2 240639Z 20004KT 08/M03 A3002 RMK A01 T00811034  RH  044%=      5-min Rain = 0
KWE2 240640Z 20003KT 08/M03 A3002 RMK A01 T00801027  RH  047%=      5-min Rain = 0
KWE2 240641Z 20003KT 08/M03 A3002 RMK A01 T00781033  RH  046%=      5-min Rain = 0
KWE2 240642Z 21003KT 08/M04 A3002 RMK A01 T00771035  RH  045%=      5-min Rain = 0
KWE2 240643Z 22003KT 08/M04 A3002 RMK A01 T00761036  RH  045%=      5-min Rain = 0
KWE2 240644Z 23002KT 08/M04 A3002 RMK A01 T00751035  RH  045%=      5-min Rain = 0
KWE2 240645Z 23003KT 08/M03 A3002 RMK A01 T00751032  RH  047%=      5-min Rain = 0
KWE2 240646Z 23003KT 07/M03 A3002 RMK A01 T00741029  RH  048%=      5-min Rain = 0
KWE2 240647Z 23004KT 08/M03 A3002 RMK A01 T00751033  RH  046%=      5-min Rain = 0
KWE2 240648Z 22004KT 08/M03 A3002 RMK A01 T00761034  RH  046%=      5-min Rain = 0
KWE2 240649Z 22004KT 08/M03 A3002 RMK A01 T00771030  RH  047%=      5-min Rain = 0
KWE2 240650Z 22004KT 08/M03 A3002 RMK A01 T00761029  RH  047%=      5-min Rain = 0
KWE2 240651Z 23004KT 08/M03 A3002 RMK A01 T00761032  RH  046%=      5-min Rain = 0
KWE2 240652Z 22003KT 08/M03 A3002 RMK A01 T00761031  RH  047%=      5-min Rain = 0
KWE2 240653Z 22003KT 08/M03 A3002 RMK A01 T00751031  RH  047%=      5-min Rain = 0
KWE2 240654Z 22004KT 07/M03 A3002 RMK A01 T00741031  RH  047%=      5-min Rain = 0
KWE2 240655Z 22004KT 07/M03 A3002 RMK A01 T00731033  RH  047%=      5-min Rain = 0
KWE2 240656Z 21004KT 07/M03 A3002 RMK A01 T00731032  RH  047%=      5-min Rain = 0
KWE2 240657Z 21003KT 07/M03 A3002 RMK A01 T00731032  RH  047%=      5-min Rain = 0
KWE2 240658Z 21003KT 07/M03 A3002 RMK A01 T00721030  RH  048%=      5-min Rain = 0
KWE2 240659Z 21003KT 07/M03 A3002 RMK A01 T00711030  RH  048%=      5-min Rain = 0
KWE2 240700Z 20003KT 07/M03 A3002 RMK A01 T00691031  RH  049%=      5-min Rain = 0
KWE2 240701Z 20003KT 07/M03 A3002 RMK A01 T00681030  RH  050%=      5-min Rain = 0
KWE2 240702Z 21003KT 07/M03 A3002 RMK A01 T00671031  RH  050%=      5-min Rain = 0
KWE2 240703Z 21003KT 07/M03 A3002 RMK A01 T00671031  RH  050%=      5-min Rain = 0
KWE2 240704Z 22003KT 07/M03 A3002 RMK A01 T00671033  RH  049%=      5-min Rain = 0
KWE2 240705Z 22003KT 07/M03 A3002 RMK A01 T00681031  RH  049%=      5-min Rain = 0
KWE2 240706Z 22002KT 07/M03 A3002 RMK A01 T00681030  RH  050%=      5-min Rain = 0
KWE2 240707Z 22002KT 07/M03 A3002 RMK A01 T00681031  RH  049%=      5-min Rain = 0
KWE2 240708Z 21002KT 07/M03 A3002 RMK A01 T00681030  RH  050%=      5-min Rain = 0
KWE2 240709Z 21002KT 07/M03 A3002 RMK A01 T00671030  RH  050%=      5-min Rain = 0
KWE2 240710Z 20002KT 07/M03 A3002 RMK A01 T00661028  RH  051%=      5-min Rain = 0
KWE2 240711Z 21002KT 07/M03 A3002 RMK A01 T00651030  RH  051%=      5-min Rain = 0
KWE2 240712Z 21002KT 07/M03 A3002 RMK A01 T00651028  RH  052%=      5-min Rain = 0
KWE2 240713Z 21002KT 06/M03 A3002 RMK A01 T00641028  RH  052%=      5-min Rain = 0
KWE2 240714Z 21002KT 06/M03 A3002 RMK A01 T00641029  RH  051%=      5-min Rain = 0
KWE2 240715Z 21002KT 06/M03 A3002 RMK A01 T00641030  RH  051%=      5-min Rain = 0
KWE2 240716Z 22002KT 06/M03 A3002 RMK A01 T00641030  RH  051%=      5-min Rain = 0
KWE2 240717Z 23001KT 07/M03 A3002 RMK A01 T00651026  RH  052%=      5-min Rain = 0
KWE2 240718Z 23002KT 06/M03 A3002 RMK A01 T00641026  RH  052%=      5-min Rain = 0
KWE2 240719Z 22002KT 06/M03 A3001 RMK A01 T00631028  RH  052%=      5-min Rain = 0
KWE2 240720Z 22002KT 06/M03 A3001 RMK A01 T00621027  RH  053%=      5-min Rain = 0
KWE2 240721Z 23002KT 06/M03 A3001 RMK A01 T00611026  RH  054%=      5-min Rain = 0
KWE2 240722Z 23002KT 06/M03 A3001 RMK A01 T00591027  RH  054%=      5-min Rain = 0
KWE2 240723Z 23002KT 06/M03 A3001 RMK A01 T00581027  RH  055%=      5-min Rain = 0
KWE2 240724Z 23002KT 06/M03 A3001 RMK A01 T00571025  RH  055%=      5-min Rain = 0
KWE2 240725Z 22002KT 06/M02 A3001 RMK A01 T00571024  RH  056%=      5-min Rain = 0
KWE2 240726Z 22003KT 06/M03 A3001 RMK A01 T00571025  RH  056%=      5-min Rain = 0
KWE2 240727Z 22003KT 06/M02 A3001 RMK A01 T00571023  RH  056%=      5-min Rain = 0
KWE2 240728Z 22003KT 06/M02 A3001 RMK A01 T00561024  RH  056%=      5-min Rain = 0
KWE2 240729Z 22003KT 06/M02 A3001 RMK A01 T00551024  RH  057%=      5-min Rain = 0
KWE2 240730Z 22003KT 06/M02 A3001 RMK A01 T00551024  RH  057%=      5-min Rain = 0
KWE2 240731Z 22003KT 06/M03 A3001 RMK A01 T00551025  RH  056%=      5-min Rain = 0
KWE2 240732Z 22003KT 06/M03 A3001 RMK A01 T00561025  RH  056%=      5-min Rain = 0
KWE2 240733Z 22003KT 06/M03 A3001 RMK A01 T00561025  RH  056%=      5-min Rain = 0
KWE2 240734Z 23003KT 06/M03 A3001 RMK A01 T00571025  RH  056%=      5-min Rain = 0
KWE2 240735Z 22003KT 06/M03 A3002 RMK A01 T00571025  RH  055%=      5-min Rain = 0
KWE2 240736Z 22004KT 06/M03 A3002 RMK A01 T00581026  RH  055%=      5-min Rain = 0
KWE2 240737Z 22004KT 06/M03 A3002 RMK A01 T00591026  RH  054%=      5-min Rain = 0
KWE2 240738Z 23003KT 06/M03 A3002 RMK A01 T00601027  RH  054%=      5-min Rain = 0
KWE2 240739Z 23003KT 06/M03 A3002 RMK A01 T00601027  RH  054%=      5-min Rain = 0
KWE2 240740Z 23003KT 06/M03 A3002 RMK A01 T00601027  RH  053%=      5-min Rain = 0
KWE2 240741Z 23003KT 06/M03 A3002 RMK A01 T00611028  RH  053%=      5-min Rain = 0
KWE2 240742Z 24003KT 06/M03 A3002 RMK A01 T00621028  RH  052%=      5-min Rain = 0
KWE2 240743Z 24003KT 06/M03 A3002 RMK A01 T00621028  RH  052%=      5-min Rain = 0
KWE2 240744Z 23003KT 06/M03 A3002 RMK A01 T00631028  RH  052%=      5-min Rain = 0
KWE2 240745Z 24004KT 06/M03 A3002 RMK A01 T00631028  RH  052%=      5-min Rain = 0
KWE2 240746Z 24004KT 06/M03 A3002 RMK A01 T00631027  RH  053%=      5-min Rain = 0
KWE2 240747Z 24004KT 06/M02 A3002 RMK A01 T00611024  RH  054%=      5-min Rain = 0
KWE2 240748Z 23004KT 06/M02 A3002 RMK A01 T00591023  RH  056%=      5-min Rain = 0
KWE2 240749Z 24004KT 06/M02 A3002 RMK A01 T00581024  RH  055%=      5-min Rain = 0
KWE2 240750Z 23004KT 06/M03 A3002 RMK A01 T00571026  RH  055%=      5-min Rain = 0
KWE2 240751Z 23004KT 06/M03 A3002 RMK A01 T00561025  RH  056%=      5-min Rain = 0
KWE2 240752Z 24003KT 06/M03 A3002 RMK A01 T00561026  RH  056%=      5-min Rain = 0
KWE2 240753Z 24003KT 06/M03 A3002 RMK A01 T00551027  RH  056%=      5-min Rain = 0
KWE2 240754Z 24003KT 06/M03 A3002 RMK A01 T00551026  RH  056%=      5-min Rain = 0
KWE2 240755Z 24003KT 06/M03 A3002 RMK A01 T00551026  RH  056%=      5-min Rain = 0
KWE2 240756Z 25003KT 06/M03 A3002 RMK A01 T00551025  RH  056%=      5-min Rain = 0
KWE2 240757Z 25003KT 06/M03 A3002 RMK A01 T00551027  RH  056%=      5-min Rain = 0
KWE2 240758Z 25003KT 06/M03 A3002 RMK A01 T00551026  RH  056%=      5-min Rain = 0
KWE2 240759Z 25003KT 06/M03 A3002 RMK A01 T00551028  RH  055%=      5-min Rain = 0
KWE2 240800Z 24003KT 06/M03 A3002 RMK A01 T00561026  RH  056%=      5-min Rain = 0
KWE2 240801Z 24004KT 06/M03 A3002 RMK A01 T00551027  RH  055%=      5-min Rain = 0
KWE2 240802Z 24004KT 06/M03 A3002 RMK A01 T00551027  RH  055%=      5-min Rain = 0
KWE2 240803Z 24004KT 06/M03 A3002 RMK A01 T00551027  RH  056%=      5-min Rain = 0
KWE2 240804Z 24004KT 05/M03 A3002 RMK A01 T00541026  RH  056%=      5-min Rain = 0
KWE2 240805Z 23005KT 05/M03 A3002 RMK A01 T00541027  RH  056%=      5-min Rain = 0
KWE2 240806Z 24005KT 05/M03 A3002 RMK A01 T00541025  RH  057%=      5-min Rain = 0
KWE2 240807Z 24005KT 05/M03 A3002 RMK A01 T00531025  RH  057%=      5-min Rain = 0
KWE2 240808Z 23005KT 05/M03 A3002 RMK A01 T00531027  RH  056%=      5-min Rain = 0
KWE2 240809Z 23005KT 05/M03 A3002 RMK A01 T00521031  RH  055%=      5-min Rain = 0
KWE2 240810Z 23005KT 05/M03 A3002 RMK A01 T00521033  RH  054%=      5-min Rain = 0
KWE2 240811Z 23006KT 05/M03 A3002 RMK A01 T00511032  RH  055%=      5-min Rain = 0
KWE2 240812Z 23006KT 05/M03 A3002 RMK A01 T00501032  RH  056%=      5-min Rain = 0
KWE2 240813Z 23006KT 05/M03 A3002 RMK A01 T00491034  RH  055%=      5-min Rain = 0
KWE2 240814Z 23006KT 05/M04 A3002 RMK A01 T00491035  RH  055%=      5-min Rain = 0
KWE2 240815Z 23006KT 05/M03 A3002 RMK A01 T00481033  RH  056%=      5-min Rain = 0
KWE2 240816Z 23006KT 05/M03 A3002 RMK A01 T00481032  RH  056%=      5-min Rain = 0
KWE2 240817Z 22006KT 05/M04 A3002 RMK A01 T00471036  RH  055%=      5-min Rain = 0
KWE2 240818Z 22006KT 05/M04 A3002 RMK A01 T00481038  RH  054%=      5-min Rain = 0
KWE2 240819Z 20007KT 05/M04 A3002 RMK A01 T00451044  RH  052%=      5-min Rain = 0
KWE2 240820Z 18009KT 04/M05 A3002 RMK A01 T00391054  RH  051%=      5-min Rain = 0
KWE2 240821Z 17011KT 04/M05 A3003 RMK A01 T00351051  RH  054%=      5-min Rain = 0
KWE2 240822Z 18010KT 04/M04 A3002 RMK A01 T00371043  RH  056%=      5-min Rain = 0
KWE2 240823Z 18008KT 04/M04 A3002 RMK A01 T00411041  RH  055%=      5-min Rain = 0
KWE2 240824Z 19009KT 05/M04 A3002 RMK A01 T00451040  RH  054%=      5-min Rain = 0
KWE2 240825Z 19009KT 05/M04 A3002 RMK A01 T00491039  RH  053%=      5-min Rain = 0
KWE2 240826Z 19009KT 05/M04 A3002 RMK A01 T00521040  RH  052%=      5-min Rain = 0
KWE2 240827Z 19009KT 05/M04 A3002 RMK A01 T00541040  RH  051%=      5-min Rain = 0
KWE2 240828Z 19009KT 06/M04 A3002 RMK A01 T00551041  RH  050%=      5-min Rain = 0
KWE2 240829Z 19009KT 06/M04 A3002 RMK A01 T00551042  RH  050%=      5-min Rain = 0
KWE2 240830Z 19008KT 05/M04 A3002 RMK A01 T00531043  RH  050%=      5-min Rain = 0
KWE2 240831Z 19009KT 05/M04 A3002 RMK A01 T00521042  RH  051%=      5-min Rain = 0
KWE2 240832Z 18008KT 05/M04 A3002 RMK A01 T00511042  RH  051%=      5-min Rain = 0
KWE2 240833Z 19009KT 05/M04 A3002 RMK A01 T00511042  RH  051%=      5-min Rain = 0
KWE2 240834Z 19008KT 05/M04 A3002 RMK A01 T00511043  RH  051%=      5-min Rain = 0
KWE2 240835Z 19008KT 05/M04 A3002 RMK A01 T00521043  RH  050%=      5-min Rain = 0
KWE2 240836Z 20009KT 05/M04 A3002 RMK A01 T00531043  RH  050%=      5-min Rain = 0
KWE2 240837Z 20009KT 05/M04 A3002 RMK A01 T00541043  RH  050%=      5-min Rain = 0
KWE2 240838Z 20009KT 05/M04 A3002 RMK A01 T00541044  RH  049%=      5-min Rain = 0
KWE2 240839Z 20009KT 06/M05 A3002 RMK A01 T00551045  RH  049%=      5-min Rain = 0
KWE2 240840Z 20009KT 06/M04 A3002 RMK A01 T00561044  RH  049%=      5-min Rain = 0
KWE2 240841Z 20010KT 06/M04 A3002 RMK A01 T00561043  RH  049%=      5-min Rain = 0
KWE2 240842Z 20009KT 06/M04 A3002 RMK A01 T00561044  RH  049%=      5-min Rain = 0
KWE2 240843Z 20008KT 06/M04 A3002 RMK A01 T00561043  RH  049%=      5-min Rain = 0
KWE2 240844Z 20009KT 06/M04 A3002 RMK A01 T00561043  RH  049%=      5-min Rain = 0
KWE2 240845Z 20008KT 06/M04 A3002 RMK A01 T00571042  RH  049%=      5-min Rain = 0
KWE2 240846Z 21007KT 06/M04 A3002 RMK A01 T00581042  RH  049%=      5-min Rain = 0
KWE2 240847Z 22007KT 06/M04 A3002 RMK A01 T00581040  RH  049%=      5-min Rain = 0
KWE2 240848Z 21007KT 06/M04 A3002 RMK A01 T00571040  RH  050%=      5-min Rain = 0
KWE2 240849Z 21007KT 06/M04 A3002 RMK A01 T00561040  RH  050%=      5-min Rain = 0
KWE2 240850Z 22007KT 06/M04 A3002 RMK A01 T00551041  RH  050%=      5-min Rain = 0
KWE2 240851Z 21007KT 05/M04 A3002 RMK A01 T00521040  RH  051%=      5-min Rain = 0
KWE2 240852Z 21007KT 05/M04 A3002 RMK A01 T00521039  RH  052%=      5-min Rain = 0
KWE2 240853Z 22007KT 05/M04 A3002 RMK A01 T00531038  RH  052%=      5-min Rain = 0
KWE2 240854Z 22007KT 05/M04 A3002 RMK A01 T00541037  RH  052%=      5-min Rain = 0
KWE2 240855Z 22007KT 05/M04 A3002 RMK A01 T00541037  RH  052%=      5-min Rain = 0
KWE2 240856Z 22007KT 05/M04 A3002 RMK A01 T00541037  RH  052%=      5-min Rain = 0
KWE2 240857Z 21007KT 05/M04 A3002 RMK A01 T00541037  RH  052%=      5-min Rain = 0
KWE2 240858Z 21008KT 05/M04 A3002 RMK A01 T00541038  RH  052%=      5-min Rain = 0
KWE2 240859Z 22007KT 05/M04 A3002 RMK A01 T00531038  RH  052%=      5-min Rain = 0
KWE2 240900Z 22008KT 05/M04 A3002 RMK A01 T00531037  RH  052%=      5-min Rain = 0
KWE2 240901Z 22008KT 06/M04 A3002 RMK A01 T00551037  RH  052%=      5-min Rain = 0
KWE2 240902Z 23008KT 06/M04 A3002 RMK A01 T00551037  RH  052%=      5-min Rain = 0
KWE2 240903Z 23008KT 06/M04 A3002 RMK A01 T00551037  RH  052%=      5-min Rain = 0
KWE2 240904Z 22008KT 06/M04 A3002 RMK A01 T00551037  RH  052%=      5-min Rain = 0
KWE2 240905Z 22008KT 05/M04 A3002 RMK A01 T00541039  RH  051%=      5-min Rain = 0
KWE2 240906Z 21009KT 05/M04 A3002 RMK A01 T00531039  RH  051%=      5-min Rain = 0
KWE2 240907Z 21009KT 05/M04 A3002 RMK A01 T00531039  RH  051%=      5-min Rain = 0
KWE2 240908Z 21009KT 05/M04 A3002 RMK A01 T00521040  RH  052%=      5-min Rain = 0
KWE2 240909Z 21008KT 05/M04 A3002 RMK A01 T00511040  RH  052%=      5-min Rain = 0
KWE2 240910Z 21008KT 05/M04 A3002 RMK A01 T00501040  RH  052%=      5-min Rain = 0
KWE2 240911Z 21009KT 05/M04 A3002 RMK A01 T00491039  RH  053%=      5-min Rain = 0
KWE2 240912Z 21009KT 05/M04 A3002 RMK A01 T00491038  RH  053%=      5-min Rain = 0
KWE2 240913Z 22009KT 05/M04 A3002 RMK A01 T00491038  RH  053%=      5-min Rain = 0
KWE2 240914Z 22009KT 05/M04 A3002 RMK A01 T00501038  RH  053%=      5-min Rain = 0
KWE2 240915Z 22009KT 05/M04 A3002 RMK A01 T00501038  RH  053%=      5-min Rain = 0
KWE2 240916Z 22009KT 05/M04 A3002 RMK A01 T00501038  RH  053%=      5-min Rain = 0
KWE2 240917Z 22009KT 05/M04 A3002 RMK A01 T00511037  RH  053%=      5-min Rain = 0
KWE2 240918Z 22009KT 05/M04 A3002 RMK A01 T00511037  RH  053%=      5-min Rain = 0
KWE2 240919Z 22009KT 05/M04 A3002 RMK A01 T00511037  RH  053%=      5-min Rain = 0
KWE2 240920Z 22008KT 05/M04 A3002 RMK A01 T00511038  RH  053%=      5-min Rain = 0
KWE2 240921Z 21009KT 05/M04 A3002 RMK A01 T00501038  RH  053%=      5-min Rain = 0
KWE2 240922Z 22009KT 05/M04 A3002 RMK A01 T00491038  RH  053%=      5-min Rain = 0
KWE2 240923Z 22008KT 05/M04 A3002 RMK A01 T00491038  RH  053%=      5-min Rain = 0
KWE2 240924Z 22008KT 05/M04 A3002 RMK A01 T00491039  RH  053%=      5-min Rain = 0
KWE2 240925Z 22008KT 05/M04 A3003 RMK A01 T00481039  RH  053%=      5-min Rain = 0
KWE2 240926Z 22008KT 05/M04 A3003 RMK A01 T00471039  RH  054%=      5-min Rain = 0
KWE2 240927Z 22009KT 05/M04 A3003 RMK A01 T00471038  RH  054%=      5-min Rain = 0
KWE2 240928Z 22009KT 05/M04 A3003 RMK A01 T00481038  RH  054%=      5-min Rain = 0
KWE2 240929Z 22010KT 05/M04 A3003 RMK A01 T00491037  RH  054%=      5-min Rain = 0
KWE2 240930Z 22011KT 05/M04 A3003 RMK A01 T00501036  RH  054%=      5-min Rain = 0
KWE2 240931Z 22011KT 05/M04 A3003 RMK A01 T00511036  RH  053%=      5-min Rain = 0
KWE2 240932Z 22011KT 05/M04 A3003 RMK A01 T00511036  RH  053%=      5-min Rain = 0
KWE2 240933Z 21011KT 05/M04 A3003 RMK A01 T00521036  RH  053%=      5-min Rain = 0
KWE2 240934Z 22011KT 05/M04 A3002 RMK A01 T00521036  RH  053%=      5-min Rain = 0
KWE2 240935Z 22011KT 05/M04 A3002 RMK A01 T00531036  RH  053%=      5-min Rain = 0
KWE2 240936Z 22011KT 05/M04 A3003 RMK A01 T00531035  RH  053%=      5-min Rain = 0
KWE2 240937Z 22011KT 05/M04 A3002 RMK A01 T00541035  RH  053%=      5-min Rain = 0
KWE2 240938Z 21012KT 06/M04 A3002 RMK A01 T00551035  RH  053%=      5-min Rain = 0
KWE2 240939Z 22012KT 06/M03 A3002 RMK A01 T00551034  RH  053%=      5-min Rain = 0
KWE2 240940Z 22013KT 06/M03 A3002 RMK A01 T00551034  RH  053%=      5-min Rain = 0
KWE2 240941Z 22013KT 05/M03 A3002 RMK A01 T00541034  RH  053%=      5-min Rain = 0
KWE2 240942Z 23011KT 06/M03 A3002 RMK A01 T00551034  RH  053%=      5-min Rain = 0
KWE2 240943Z 22011KT 06/M03 A3002 RMK A01 T00561034  RH  052%=      5-min Rain = 0
KWE2 240944Z 25009KT 06/M03 A3002 RMK A01 T00571033  RH  052%=      5-min Rain = 0
KWE2 240945Z 23012KT 06/M03 A3002 RMK A01 T00581033  RH  052%=      5-min Rain = 0
KWE2 240946Z 23012KT 06/M03 A3002 RMK A01 T00601033  RH  051%=      5-min Rain = 0
KWE2 240947Z 23012KT 06/M03 A3002 RMK A01 T00621034  RH  050%=      5-min Rain = 0
KWE2 240948Z 24011KT 06/M03 A3002 RMK A01 T00641033  RH  050%=      5-min Rain = 0
KWE2 240949Z 23011KT 07/M03 A3002 RMK A01 T00661033  RH  049%=      5-min Rain = 0
KWE2 240950Z 23010KT 07/M03 A3002 RMK A01 T00661033  RH  049%=      5-min Rain = 0
KWE2 240951Z 23010KT 07/M03 A3002 RMK A01 T00671033  RH  049%=      5-min Rain = 0
KWE2 240952Z 23010KT 07/M03 A3002 RMK A01 T00661034  RH  049%=      5-min Rain = 0
KWE2 240953Z 23011KT 07/M04 A3002 RMK A01 T00651035  RH  049%=      5-min Rain = 0
KWE2 240954Z 23011KT 07/M04 A3002 RMK A01 T00661035  RH  048%=      5-min Rain = 0
KWE2 240955Z 23011KT 07/M04 A3002 RMK A01 T00681035  RH  048%=      5-min Rain = 0
KWE2 240956Z 23010KT 07/M03 A3002 RMK A01 T00691034  RH  048%=      5-min Rain = 0
KWE2 240957Z 23010KT 07/M03 A3002 RMK A01 T00691034  RH  048%=      5-min Rain = 0
KWE2 240958Z 23010KT 07/M03 A3002 RMK A01 T00691034  RH  048%=      5-min Rain = 0
KWE2 240959Z 23010KT 07/M03 A3002 RMK A01 T00681033  RH  049%=      5-min Rain = 0
KWE2 241000Z 23010KT 07/M03 A3002 RMK A01 T00661033  RH  049%=      5-min Rain = 0
KWE2 241001Z 23010KT 07/M03 A3002 RMK A01 T00661033  RH  049%=      5-min Rain = 0
KWE2 241002Z 23011KT 07/M03 A3002 RMK A01 T00661032  RH  050%=      5-min Rain = 0
KWE2 241003Z 23010KT 07/M03 A3002 RMK A01 T00661032  RH  050%=      5-min Rain = 0
KWE2 241004Z 24009KT 07/M03 A3002 RMK A01 T00661032  RH  050%=      5-min Rain = 0
KWE2 241005Z 23009KT 07/M03 A3002 RMK A01 T00661031  RH  050%=      5-min Rain = 0
KWE2 241006Z 23009KT 07/M03 A3002 RMK A01 T00651031  RH  050%=      5-min Rain = 0
KWE2 241007Z 23009KT 07/M03 A3002 RMK A01 T00651031  RH  050%=      5-min Rain = 0
KWE2 241008Z 23010KT 06/M03 A3002 RMK A01 T00641032  RH  050%=      5-min Rain = 0
KWE2 241009Z 23010KT 06/M03 A3002 RMK A01 T00641031  RH  051%=      5-min Rain = 0
KWE2 241010Z 23010KT 06/M03 A3002 RMK A01 T00631031  RH  051%=      5-min Rain = 0
KWE2 241011Z 23010KT 06/M03 A3002 RMK A01 T00631032  RH  051%=      5-min Rain = 0
KWE2 241012Z 23010KT 06/M03 A3002 RMK A01 T00641032  RH  050%=      5-min Rain = 0
KWE2 241013Z 23010KT 07/M03 A3003 RMK A01 T00651031  RH  050%=      5-min Rain = 0
KWE2 241014Z 23009KT 07/M03 A3003 RMK A01 T00651032  RH  050%=      5-min Rain = 0
KWE2 241015Z 23009KT 07/M03 A3002 RMK A01 T00651032  RH  050%=      5-min Rain = 0
KWE2 241016Z 23009KT 07/M03 A3003 RMK A01 T00651032  RH  050%=      5-min Rain = 0
KWE2 241017Z 24009KT 07/M03 A3003 RMK A01 T00651032  RH  050%=      5-min Rain = 0
KWE2 241018Z 24010KT 07/M03 A3003 RMK A01 T00651032  RH  050%=      5-min Rain = 0
KWE2 241019Z 24010KT 07/M03 A3003 RMK A01 T00661032  RH  050%=      5-min Rain = 0
KWE2 241020Z 24010KT 07/M03 A3003 RMK A01 T00661031  RH  050%=      5-min Rain = 0
KWE2 241021Z 24010KT 07/M03 A3003 RMK A01 T00681031  RH  049%=      5-min Rain = 0
KWE2 241022Z 24010KT 07/M03 A3003 RMK A01 T00691030  RH  049%=      5-min Rain = 0
KWE2 241023Z 24010KT 07/M03 A3003 RMK A01 T00691030  RH  049%=      5-min Rain = 0
KWE2 241024Z 24010KT 07/M03 A3003 RMK A01 T00691028  RH  050%=      5-min Rain = 0
KWE2 241025Z 24010KT 07/M03 A3003 RMK A01 T00691028  RH  050%=      5-min Rain = 0
KWE2 241026Z 24010KT 07/M03 A3003 RMK A01 T00691028  RH  050%=      5-min Rain = 0
KWE2 241027Z 24009KT 07/M03 A3003 RMK A01 T00691027  RH  050%=      5-min Rain = 0
KWE2 241028Z 24010KT 07/M03 A3003 RMK A01 T00691027  RH  050%=      5-min Rain = 0
KWE2 241029Z 24010KT 07/M03 A3003 RMK A01 T00681027  RH  051%=      5-min Rain = 0
KWE2 241030Z 24011KT 07/M03 A3003 RMK A01 T00681027  RH  051%=      5-min Rain = 0
KWE2 241031Z 24010KT 07/M03 A3003 RMK A01 T00691026  RH  051%=      5-min Rain = 0
KWE2 241032Z 24011KT 07/M02 A3003 RMK A01 T00701023  RH  052%=      5-min Rain = 0
KWE2 241033Z 24011KT 07/M02 A3003 RMK A01 T00721020  RH  052%=      5-min Rain = 0
KWE2 241034Z 24011KT 07/M02 A3003 RMK A01 T00731018  RH  052%=      5-min Rain = 0
KWE2 241035Z 24011KT 07/M02 A3003 RMK A01 T00741016  RH  053%=      5-min Rain = 0
KWE2 241036Z 24011KT 08/M01 A3003 RMK A01 T00761014  RH  053%=      5-min Rain = 0
KWE2 241037Z 24011KT 08/M01 A3003 RMK A01 T00771013  RH  053%=      5-min Rain = 0
KWE2 241038Z 24011KT 08/M01 A3003 RMK A01 T00781011  RH  054%=      5-min Rain = 0
KWE2 241039Z 24011KT 08/M01 A3003 RMK A01 T00781008  RH  055%=      5-min Rain = 0
KWE2 241040Z 24010KT 08/M01 A3003 RMK A01 T00791006  RH  055%=      5-min Rain = 0
KWE2 241041Z 24010KT 08/M00 A3003 RMK A01 T00791004  RH  056%=      5-min Rain = 0
KWE2 241042Z 24010KT 08/M00 A3003 RMK A01 T00791003  RH  056%=      5-min Rain = 0
KWE2 241043Z 24009KT 08/M00 A3003 RMK A01 T00791002  RH  056%=      5-min Rain = 0
KWE2 241044Z 24009KT 08/00 A3003 RMK A01 T007900-0  RH  057%=      5-min Rain = 0
KWE2 241045Z 24009KT 08/00 A3003 RMK A01 T00780003  RH  059%=      5-min Rain = 0
KWE2 241046Z 24009KT 08/01 A3003 RMK A01 T00780005  RH  060%=      5-min Rain = 0
KWE2 241047Z 24010KT 08/01 A3003 RMK A01 T00780007  RH  061%=      5-min Rain = 0
KWE2 241048Z 24010KT 08/01 A3003 RMK A01 T00780009  RH  062%=      5-min Rain = 0
KWE2 241049Z 24010KT 08/01 A3003 RMK A01 T00780011  RH  062%=      5-min Rain = 0
KWE2 241050Z 24010KT 08/01 A3003 RMK A01 T00790014  RH  063%=      5-min Rain = 0
KWE2 241051Z 24010KT 08/02 A3003 RMK A01 T00810016  RH  063%=      5-min Rain = 0
KWE2 241052Z 24009KT 08/02 A3003 RMK A01 T00820016  RH  063%=      5-min Rain = 0
KWE2 241053Z 24010KT 08/02 A3003 RMK A01 T00820015  RH  063%=      5-min Rain = 0
KWE2 241054Z 24010KT 08/02 A3003 RMK A01 T00810015  RH  063%=      5-min Rain = 0
KWE2 241055Z 24010KT 08/02 A3003 RMK A01 T00810016  RH  063%=      5-min Rain = 0
KWE2 241056Z 24010KT 08/02 A3003 RMK A01 T00810015  RH  063%=      5-min Rain = 0
KWE2 241057Z 24009KT 08/02 A3003 RMK A01 T00800015  RH  064%=      5-min Rain = 0
KWE2 241058Z 24010KT 08/02 A3003 RMK A01 T00800016  RH  064%=      5-min Rain = 0
KWE2 241059Z 24011KT 08/02 A3003 RMK A01 T00790017  RH  065%=      5-min Rain = 0
KWE2 241100Z 24011KT 08/02 A3003 RMK A01 T00800021  RH  066%=      5-min Rain = 0
KWE2 241101Z 24012KT 08/02 A3003 RMK A01 T00820024  RH  067%=      5-min Rain = 0
KWE2 241102Z 24012KT 08/03 A3003 RMK A01 T00830025  RH  067%=      5-min Rain = 0
KWE2 241103Z 24011KT 08/03 A3003 RMK A01 T00840026  RH  067%=      5-min Rain = 0
KWE2 241104Z 24011KT 08/03 A3003 RMK A01 T00840026  RH  067%=      5-min Rain = 0
KWE2 241105Z 24011KT 08/03 A3003 RMK A01 T00830026  RH  067%=      5-min Rain = 0
KWE2 241106Z 24010KT 08/03 A3003 RMK A01 T00820026  RH  067%=      5-min Rain = 0
KWE2 241107Z 24010KT 08/03 A3003 RMK A01 T00810025  RH  068%=      5-min Rain = 0
KWE2 241108Z 24011KT 08/03 A3003 RMK A01 T00810025  RH  068%=      5-min Rain = 0
KWE2 241109Z 25010KT 08/03 A3003 RMK A01 T00800025  RH  068%=      5-min Rain = 0
KWE2 241110Z 25010KT 08/02 A3003 RMK A01 T00790024  RH  068%=      5-min Rain = 0
KWE2 241111Z 24010KT 08/02 A3003 RMK A01 T00780023  RH  068%=      5-min Rain = 0
KWE2 241112Z 24010KT 08/02 A3003 RMK A01 T00770024  RH  069%=      5-min Rain = 0
KWE2 241113Z 24009KT 08/03 A3003 RMK A01 T00770025  RH  070%=      5-min Rain = 0
KWE2 241114Z 24009KT 08/03 A3003 RMK A01 T00770025  RH  070%=      5-min Rain = 0
KWE2 241115Z 24010KT 08/03 A3003 RMK A01 T00760026  RH  070%=      5-min Rain = 0
KWE2 241116Z 25009KT 08/03 A3003 RMK A01 T00760027  RH  071%=      5-min Rain = 0
KWE2 241117Z 25009KT 08/03 A3003 RMK A01 T00760029  RH  072%=      5-min Rain = 0
KWE2 241118Z 25009KT 08/03 A3003 RMK A01 T00760029  RH  072%=      5-min Rain = 0
KWE2 241119Z 25009KT 08/03 A3003 RMK A01 T00760030  RH  073%=      5-min Rain = 0
KWE2 241120Z 25009KT 08/03 A3003 RMK A01 T00760031  RH  073%=      5-min Rain = 0
KWE2 241121Z 25009KT 08/03 A3003 RMK A01 T00760032  RH  074%=      5-min Rain = 0
KWE2 241122Z 25010KT 08/03 A3003 RMK A01 T00760033  RH  074%=      5-min Rain = 0
KWE2 241123Z 25010KT 08/04 A3003 RMK A01 T00760035  RH  075%=      5-min Rain = 0
KWE2 241124Z 25010KT 08/04 A3003 RMK A01 T00770037  RH  075%=      5-min Rain = 0
KWE2 241125Z 25010KT 08/04 A3003 RMK A01 T00780037  RH  075%=      5-min Rain = 0
KWE2 241126Z 26009KT 08/04 A3003 RMK A01 T00790038  RH  075%=      5-min Rain = 0
KWE2 241127Z 26009KT 08/04 A3003 RMK A01 T00800038  RH  075%=      5-min Rain = 0
KWE2 241128Z 26009KT 08/04 A3003 RMK A01 T00810037  RH  074%=      5-min Rain = 0
KWE2 241129Z 25009KT 08/04 A3003 RMK A01 T00810035  RH  073%=      5-min Rain = 0
KWE2 241130Z 25009KT 08/03 A3003 RMK A01 T00820034  RH  072%=      5-min Rain = 0
KWE2 241131Z 25009KT 08/03 A3003 RMK A01 T00820033  RH  071%=      5-min Rain = 0
KWE2 241132Z 25009KT 08/03 A3003 RMK A01 T00820032  RH  071%=      5-min Rain = 0
KWE2 241133Z 25009KT 08/03 A3003 RMK A01 T00820031  RH  071%=      5-min Rain = 0
KWE2 241134Z 25009KT 08/03 A3003 RMK A01 T00810031  RH  070%=      5-min Rain = 0
KWE2 241135Z 25009KT 08/03 A3003 RMK A01 T00810030  RH  070%=      5-min Rain = 0
KWE2 241136Z 25009KT 08/03 A3003 RMK A01 T00810030  RH  070%=      5-min Rain = 0
KWE2 241137Z 25009KT 08/03 A3003 RMK A01 T00800030  RH  071%=      5-min Rain = 0
KWE2 241138Z 25009KT 08/03 A3003 RMK A01 T00810031  RH  071%=      5-min Rain = 0
KWE2 241139Z 25010KT 08/03 A3003 RMK A01 T00800030  RH  071%=      5-min Rain = 0
KWE2 241140Z 25010KT 08/03 A3003 RMK A01 T00810030  RH  071%=      5-min Rain = 0
KWE2 241141Z 25009KT 08/03 A3003 RMK A01 T00800030  RH  070%=      5-min Rain = 0
KWE2 241142Z 25010KT 08/03 A3003 RMK A01 T00810029  RH  070%=      5-min Rain = 0
KWE2 241143Z 25010KT 08/03 A3003 RMK A01 T00810028  RH  069%=      5-min Rain = 0
KWE2 241144Z 25010KT 08/03 A3003 RMK A01 T00810027  RH  069%=      5-min Rain = 0
KWE2 241145Z 25010KT 08/03 A3003 RMK A01 T00810026  RH  068%=      5-min Rain = 0
KWE2 241146Z 25010KT 08/03 A3003 RMK A01 T00810025  RH  068%=      5-min Rain = 0
KWE2 241147Z 25010KT 08/02 A3003 RMK A01 T00810024  RH  067%=      5-min Rain = 0
KWE2 241148Z 25010KT 08/02 A3003 RMK A01 T00810024  RH  067%=      5-min Rain = 0
KWE2 241149Z 25010KT 08/02 A3003 RMK A01 T00790023  RH  067%=      5-min Rain = 0
KWE2 241150Z 25009KT 08/02 A3003 RMK A01 T00790022  RH  067%=      5-min Rain = 0
KWE2 241151Z 25009KT 08/02 A3003 RMK A01 T00770021  RH  067%=      5-min Rain = 0
KWE2 241152Z 25010KT 08/02 A3003 RMK A01 T00760020  RH  067%=      5-min Rain = 0
KWE2 241153Z 26009KT 08/02 A3003 RMK A01 T00760020  RH  068%=      5-min Rain = 0
KWE2 241154Z 26009KT 08/02 A3003 RMK A01 T00760019  RH  068%=      5-min Rain = 0
KWE2 241155Z 26009KT 08/02 A3003 RMK A01 T00760020  RH  068%=      5-min Rain = 0
KWE2 241156Z 26009KT 08/02 A3003 RMK A01 T00750018  RH  067%=      5-min Rain = 0
KWE2 241157Z 26009KT 08/02 A3003 RMK A01 T00750017  RH  067%=      5-min Rain = 0
KWE2 241158Z 26009KT 07/02 A3003 RMK A01 T00740016  RH  066%=      5-min Rain = 0
KWE2 241159Z 26008KT 07/01 A3003 RMK A01 T00730014  RH  066%=      5-min Rain = 0
KWE2 241200Z 26008KT 07/01 A3003 RMK A01 T00720013  RH  066%=      5-min Rain = 0
KWE2 241201Z 26009KT 07/01 A3003 RMK A01 T00710012  RH  066%=      5-min Rain = 0
KWE2 241202Z 26008KT 07/01 A3003 RMK A01 T00700010  RH  066%=      5-min Rain = 0
KWE2 241203Z 26008KT 07/01 A3003 RMK A01 T00700010  RH  065%=      5-min Rain = 0
KWE2 241204Z 26009KT 07/01 A3003 RMK A01 T00690009  RH  065%=      5-min Rain = 0
KWE2 241205Z 26008KT 07/01 A3003 RMK A01 T00690008  RH  065%=      5-min Rain = 0
KWE2 241206Z 27008KT 07/01 A3003 RMK A01 T00680007  RH  065%=      5-min Rain = 0
KWE2 241207Z 27008KT 07/01 A3003 RMK A01 T00680006  RH  065%=      5-min Rain = 0
KWE2 241208Z 27008KT 07/01 A3003 RMK A01 T00670006  RH  065%=      5-min Rain = 0
KWE2 241209Z 27008KT 07/01 A3003 RMK A01 T00670005  RH  065%=      5-min Rain = 0
KWE2 241210Z 27007KT 07/00 A3003 RMK A01 T00670004  RH  064%=      5-min Rain = 0
KWE2 241211Z 27007KT 07/00 A3003 RMK A01 T00670003  RH  064%=      5-min Rain = 0
KWE2 241212Z 27007KT 07/00 A3004 RMK A01 T00670003  RH  064%=      5-min Rain = 0
KWE2 241213Z 28006KT 07/00 A3004 RMK A01 T00660002  RH  064%=      5-min Rain = 0
KWE2 241214Z 28006KT 07/00 A3004 RMK A01 T00650001  RH  064%=      5-min Rain = 0
KWE2 241215Z 30005KT 06/00 A3004 RMK A01 T00630001  RH  064%=      5-min Rain = 0
KWE2 241216Z 33005KT 06/00 A3004 RMK A01 T00620001  RH  065%=      5-min Rain = 0
KWE2 241217Z 35007KT 06/00 A3004 RMK A01 T00600000  RH  066%=      5-min Rain = 0
KWE2 241218Z 36007KT 06/M00 A3004 RMK A01 T00591002  RH  065%=      5-min Rain = 0
KWE2 241219Z 01008KT 06/M01 A3004 RMK A01 T00581005  RH  064%=      5-min Rain = 0
KWE2 241220Z 00008KT 06/M01 A3004 RMK A01 T00571010  RH  062%=      5-min Rain = 0
KWE2 241221Z 35008KT 06/M01 A3005 RMK A01 T00561012  RH  062%=      5-min Rain = 0
KWE2 241222Z 32008KT 06/M01 A3004 RMK A01 T00551012  RH  062%=      5-min Rain = 0
KWE2 241223Z 30008KT 06/M01 A3005 RMK A01 T00571013  RH  061%=      5-min Rain = 0
KWE2 241224Z 30007KT 06/M01 A3004 RMK A01 T00631012  RH  059%=      5-min Rain = 0
KWE2 241225Z 29007KT 06/M01 A3004 RMK A01 T00641012  RH  058%=      5-min Rain = 0
KWE2 241226Z 31008KT 06/M01 A3005 RMK A01 T00641011  RH  058%=      5-min Rain = 0
KWE2 241227Z 33008KT 06/M01 A3005 RMK A01 T00641010  RH  059%=      5-min Rain = 0
KWE2 241228Z 35011KT 06/M01 A3005 RMK A01 T00611012  RH  059%=      5-min Rain = 0
KWE2 241229Z 35010KT 06/M02 A3005 RMK A01 T00581016  RH  059%=      5-min Rain = 0
KWE2 241230Z 35011KT 06/M02 A3005 RMK A01 T00571020  RH  058%=      5-min Rain = 0
KWE2 241231Z 33010KT 06/M02 A3005 RMK A01 T00571022  RH  057%=      5-min Rain = 0
KWE2 241232Z 32010KT 06/M02 A3005 RMK A01 T00571023  RH  056%=      5-min Rain = 0
KWE2 241233Z 31009KT 06/M02 A3005 RMK A01 T00581024  RH  056%=      5-min Rain = 0
KWE2 241234Z 31009KT 06/M03 A3005 RMK A01 T00581025  RH  055%=      5-min Rain = 0
KWE2 241235Z 31008KT 06/M03 A3005 RMK A01 T00581025  RH  055%=      5-min Rain = 0
KWE2 241236Z 32008KT 06/M03 A3005 RMK A01 T00581026  RH  055%=      5-min Rain = 0
KWE2 241237Z 32007KT 06/M03 A3005 RMK A01 T00571026  RH  055%=      5-min Rain = 0
KWE2 241238Z 33007KT 06/M03 A3005 RMK A01 T00561026  RH  056%=      5-min Rain = 0
KWE2 241239Z 35008KT 06/M03 A3005 RMK A01 T00551025  RH  056%=      5-min Rain = 0
KWE2 241240Z 35008KT 05/M03 A3005 RMK A01 T00541025  RH  057%=      5-min Rain = 0
KWE2 241241Z 35008KT 05/M03 A3005 RMK A01 T00531025  RH  057%=      5-min Rain = 0
KWE2 241242Z 34008KT 05/M03 A3005 RMK A01 T00531025  RH  057%=      5-min Rain = 0
KWE2 241243Z 33007KT 05/M03 A3005 RMK A01 T00531027  RH  056%=      5-min Rain = 0
KWE2 241244Z 32007KT 05/M03 A3005 RMK A01 T00541027  RH  056%=      5-min Rain = 0
KWE2 241245Z 31007KT 05/M03 A3005 RMK A01 T00541028  RH  055%=      5-min Rain = 0
KWE2 241246Z 31007KT 06/M03 A3005 RMK A01 T00551028  RH  055%=      5-min Rain = 0
KWE2 241247Z 31007KT 05/M03 A3005 RMK A01 T00541028  RH  056%=      5-min Rain = 0
KWE2 241248Z 32007KT 05/M03 A3005 RMK A01 T00531027  RH  056%=      5-min Rain = 0
KWE2 241249Z 32007KT 05/M03 A3005 RMK A01 T00521027  RH  056%=      5-min Rain = 0
KWE2 241250Z 33007KT 05/M03 A3005 RMK A01 T00501027  RH  057%=      5-min Rain = 0
KWE2 241251Z 33007KT 05/M03 A3005 RMK A01 T00491026  RH  058%=      5-min Rain = 0
KWE2 241252Z 32007KT 05/M03 A3005 RMK A01 T00491026  RH  058%=      5-min Rain = 0
KWE2 241253Z 32007KT 05/M03 A3005 RMK A01 T00491026  RH  058%=      5-min Rain = 0
KWE2 241254Z 33007KT 05/M03 A3006 RMK A01 T00491026  RH  058%=      5-min Rain = 0
KWE2 241255Z 32007KT 05/M03 A3006 RMK A01 T00481027  RH  058%=      5-min Rain = 0
KWE2 241256Z 32007KT 05/M03 A3006 RMK A01 T00481027  RH  059%=      5-min Rain = 0
KWE2 241257Z 32007KT 05/M03 A3006 RMK A01 T00481027  RH  058%=      5-min Rain = 0
KWE2 241258Z 32007KT 05/M03 A3006 RMK A01 T00481027  RH  058%=      5-min Rain = 0
KWE2 241259Z 32007KT 05/M03 A3006 RMK A01 T00481027  RH  058%=      5-min Rain = 0
KWE2 241300Z 32007KT 05/M03 A3006 RMK A01 T00481027  RH  058%=      5-min Rain = 0
KWE2 241301Z 32007KT 05/M03 A3006 RMK A01 T00481027  RH  058%=      5-min Rain = 0
KWE2 241302Z 32007KT 05/M03 A3006 RMK A01 T00491027  RH  058%=      5-min Rain = 0
KWE2 241303Z 32007KT 05/M03 A3006 RMK A01 T00501027  RH  057%=      5-min Rain = 0
KWE2 241304Z 32007KT 05/M03 A3006 RMK A01 T00501028  RH  057%=      5-min Rain = 0
KWE2 241305Z 32007KT 05/M03 A3006 RMK A01 T00511028  RH  057%=      5-min Rain = 0
KWE2 241306Z 32007KT 05/M03 A3006 RMK A01 T00511028  RH  057%=      5-min Rain = 0
KWE2 241307Z 32007KT 05/M03 A3006 RMK A01 T00521028  RH  056%=      5-min Rain = 0
KWE2 241308Z 32007KT 05/M03 A3006 RMK A01 T00521028  RH  056%=      5-min Rain = 0
KWE2 241309Z 32007KT 05/M03 A3006 RMK A01 T00531028  RH  056%=      5-min Rain = 0
KWE2 241310Z 32007KT 05/M03 A3006 RMK A01 T00531028  RH  056%=      5-min Rain = 0
KWE2 241311Z 33006KT 05/M03 A3006 RMK A01 T00531027  RH  056%=      5-min Rain = 0
KWE2 241312Z 32006KT 05/M03 A3006 RMK A01 T00541026  RH  056%=      5-min Rain = 0
KWE2 241313Z 32005KT 05/M03 A3006 RMK A01 T00541026  RH  056%=      5-min Rain = 0
KWE2 241314Z 32006KT 05/M03 A3006 RMK A01 T00541026  RH  056%=      5-min Rain = 0
KWE2 241315Z 33006KT 05/M03 A3006 RMK A01 T00541026  RH  057%=      5-min Rain = 0
KWE2 241316Z 33006KT 05/M03 A3006 RMK A01 T00541025  RH  057%=      5-min Rain = 0
KWE2 241317Z 33006KT 05/M03 A3006 RMK A01 T00541025  RH  057%=      5-min Rain = 0
KWE2 241318Z 32005KT 06/M03 A3006 RMK A01 T00551025  RH  057%=      5-min Rain = 0
KWE2 241319Z 32006KT 06/M02 A3006 RMK A01 T00561024  RH  056%=      5-min Rain = 0
KWE2 241320Z 32006KT 06/M02 A3006 RMK A01 T00571024  RH  056%=      5-min Rain = 0
KWE2 241321Z 32006KT 06/M02 A3007 RMK A01 T00581024  RH  056%=      5-min Rain = 0
KWE2 241322Z 32006KT 06/M02 A3007 RMK A01 T00581024  RH  056%=      5-min Rain = 0
KWE2 241323Z 32006KT 06/M02 A3007 RMK A01 T00601023  RH  055%=      5-min Rain = 0
KWE2 241324Z 32006KT 06/M02 A3007 RMK A01 T00621023  RH  054%=      5-min Rain = 0
KWE2 241325Z 32006KT 06/M02 A3007 RMK A01 T00641022  RH  054%=      5-min Rain = 0
KWE2 241326Z 32007KT 07/M02 A3007 RMK A01 T00661021  RH  054%=      5-min Rain = 0
KWE2 241327Z 32008KT 07/M02 A3007 RMK A01 T00681022  RH  053%=      5-min Rain = 0
KWE2 241328Z 32008KT 07/M02 A3007 RMK A01 T00711022  RH  052%=      5-min Rain = 0
KWE2 241329Z 33008KT 07/M02 A3007 RMK A01 T00721022  RH  051%=      5-min Rain = 0
KWE2 241330Z 33008KT 07/M02 A3007 RMK A01 T00741021  RH  051%=      5-min Rain = 0
KWE2 241331Z 32009KT 08/M02 A3007 RMK A01 T00751021  RH  051%=      5-min Rain = 0
KWE2 241332Z 32008KT 08/M02 A3007 RMK A01 T00771022  RH  049%=      5-min Rain = 0
KWE2 241333Z 33008KT 08/M02 A3007 RMK A01 T00781021  RH  049%=      5-min Rain = 0
KWE2 241334Z 33008KT 08/M02 A3007 RMK A01 T00801019  RH  050%=      5-min Rain = 0
KWE2 241335Z 33008KT 08/M02 A3007 RMK A01 T00821020  RH  049%=      5-min Rain = 0
KWE2 241336Z 33007KT 09/M02 A3007 RMK A01 T00851020  RH  048%=      5-min Rain = 0
KWE2 241337Z 32007KT 09/M02 A3007 RMK A01 T00861021  RH  047%=      5-min Rain = 0
KWE2 241338Z 33006KT 09/M02 A3007 RMK A01 T00881020  RH  047%=      5-min Rain = 0
KWE2 241339Z 33006KT 09/M02 A3007 RMK A01 T00891021  RH  046%=      5-min Rain = 0
KWE2 241340Z 33007KT 09/M02 A3007 RMK A01 T00891021  RH  046%=      5-min Rain = 0
KWE2 241341Z 33006KT 09/M02 A3007 RMK A01 T00901021  RH  045%=      5-min Rain = 0
KWE2 241342Z 34006KT 09/M02 A3007 RMK A01 T00911021  RH  045%=      5-min Rain = 0
KWE2 241343Z 34006KT 09/M02 A3007 RMK A01 T00911021  RH  045%=      5-min Rain = 0
KWE2 241344Z 34005KT 09/M02 A3007 RMK A01 T00921020  RH  046%=      5-min Rain = 0
KWE2 241345Z 34006KT 09/M02 A3007 RMK A01 T00931019  RH  045%=      5-min Rain = 0
KWE2 241346Z 34007KT 09/M02 A3007 RMK A01 T00941018  RH  046%=      5-min Rain = 0
KWE2 241347Z 34007KT 10/M02 A3007 RMK A01 T00951018  RH  045%=      5-min Rain = 0
KWE2 241348Z 34008KT 10/M02 A3007 RMK A01 T00961017  RH  045%=      5-min Rain = 0
KWE2 241349Z 34009KT 10/M02 A3007 RMK A01 T00961018  RH  045%=      5-min Rain = 0
KWE2 241350Z 34009KT 10/M02 A3007 RMK A01 T00971017  RH  045%=      5-min Rain = 0
KWE2 241351Z 35008KT 10/M02 A3007 RMK A01 T00971016  RH  045%=      5-min Rain = 0
KWE2 241352Z 35009KT 10/M02 A3007 RMK A01 T00971016  RH  045%=      5-min Rain = 0
KWE2 241353Z 35009KT 10/M02 A3007 RMK A01 T00971017  RH  045%=      5-min Rain = 0
KWE2 241354Z 35010KT 10/M02 A3007 RMK A01 T00971017  RH  045%=      5-min Rain = 0
KWE2 241355Z 35009KT 10/M02 A3007 RMK A01 T00971016  RH  045%=      5-min Rain = 0
KWE2 241356Z 34009KT 10/M02 A3007 RMK A01 T00981016  RH  045%=      5-min Rain = 0
KWE2 241357Z 34009KT 10/M02 A3007 RMK A01 T00991017  RH  045%=      5-min Rain = 0
KWE2 241358Z 33008KT 10/M02 A3007 RMK A01 T00991017  RH  044%=      5-min Rain = 0
KWE2 241359Z 33009KT 10/M02 A3008 RMK A01 T00991017  RH  044%=      5-min Rain = 0
KWE2 241400Z 33009KT 10/M02 A3008 RMK A01 T00991017  RH  044%=      5-min Rain = 0
KWE2 241401Z 34010KT 10/M02 A3008 RMK A01 T00991017  RH  044%=      5-min Rain = 0
KWE2 241402Z 34009KT 10/M02 A3008 RMK A01 T00991016  RH  045%=      5-min Rain = 0
KWE2 241403Z 34008KT 10/M02 A3008 RMK A01 T01001015  RH  045%=      5-min Rain = 0
KWE2 241404Z 34007KT 10/M01 A3008 RMK A01 T01011013  RH  045%=      5-min Rain = 0
KWE2 241405Z 35008KT 10/M01 A3008 RMK A01 T01021012  RH  045%=      5-min Rain = 0
KWE2 241406Z 35008KT 10/M02 A3008 RMK A01 T01031015  RH  044%=      5-min Rain = 0
KWE2 241407Z 35008KT 10/M02 A3008 RMK A01 T01031015  RH  044%=      5-min Rain = 0
KWE2 241408Z 35007KT 10/M01 A3008 RMK A01 T01041012  RH  044%=      5-min Rain = 0
KWE2 241409Z 35008KT 11/M01 A3008 RMK A01 T01051014  RH  043%=      5-min Rain = 0
KWE2 241410Z 35008KT 11/M02 A3008 RMK A01 T01051015  RH  043%=      5-min Rain = 0
KWE2 241411Z 34006KT 10/M02 A3008 RMK A01 T01041015  RH  043%=      5-min Rain = 0
KWE2 241412Z 35007KT 10/M01 A3008 RMK A01 T01041012  RH  044%=      5-min Rain = 0
KWE2 241413Z 35008KT 10/M02 A3008 RMK A01 T01041016  RH  043%=      5-min Rain = 0
KWE2 241414Z 35007KT 11/M02 A3008 RMK A01 T01051015  RH  043%=      5-min Rain = 0
KWE2 241415Z 35008KT 11/M01 A3008 RMK A01 T01051014  RH  043%=      5-min Rain = 0
KWE2 241416Z 35008KT 10/M02 A3008 RMK A01 T01041017  RH  043%=      5-min Rain = 0
KWE2 241417Z 35007KT 10/M02 A3009 RMK A01 T01041015  RH  043%=      5-min Rain = 0
KWE2 241418Z 35008KT 10/M02 A3009 RMK A01 T01041015  RH  044%=      5-min Rain = 0
KWE2 241419Z 35009KT 10/M02 A3009 RMK A01 T01041016  RH  043%=      5-min Rain = 0
KWE2 241420Z 36007KT 10/M02 A3009 RMK A01 T01031016  RH  043%=      5-min Rain = 0
KWE2 241421Z 36007KT 10/M01 A3009 RMK A01 T01031013  RH  044%=      5-min Rain = 0
KWE2 241422Z 36007KT 10/M01 A3009 RMK A01 T01041012  RH  044%=      5-min Rain = 0
KWE2 241423Z 01008KT 11/M01 A3009 RMK A01 T01051012  RH  044%=      5-min Rain = 0
KWE2 241424Z 00008KT 11/M01 A3009 RMK A01 T01061013  RH  044%=      5-min Rain = 0
KWE2 241425Z 00008KT 11/M01 A3009 RMK A01 T01061012  RH  044%=      5-min Rain = 0
KWE2 241426Z 00007KT 11/M01 A3009 RMK A01 T01061013  RH  044%=      5-min Rain = 0
KWE2 241427Z 01008KT 11/M01 A3009 RMK A01 T01061011  RH  044%=      5-min Rain = 0
KWE2 241428Z 36008KT 11/M01 A3009 RMK A01 T01061012  RH  044%=      5-min Rain = 0
KWE2 241429Z 35008KT 11/M01 A3009 RMK A01 T01051012  RH  044%=      5-min Rain = 0
KWE2 241430Z 35008KT 10/M01 A3009 RMK A01 T01041012  RH  044%=      5-min Rain = 0
KWE2 241431Z 35008KT 10/M01 A3009 RMK A01 T01041012  RH  044%=      5-min Rain = 0
KWE2 241432Z 36007KT 10/M01 A3009 RMK A01 T01041010  RH  045%=      5-min Rain = 0
KWE2 241433Z 35007KT 11/M01 A3009 RMK A01 T01051008  RH  045%=      5-min Rain = 0
KWE2 241434Z 35009KT 11/M01 A3009 RMK A01 T01061010  RH  045%=      5-min Rain = 0
KWE2 241435Z 35009KT 11/M01 A3009 RMK A01 T01061011  RH  044%=      5-min Rain = 0
KWE2 241436Z 35008KT 11/M01 A3009 RMK A01 T01061010  RH  044%=      5-min Rain = 0
KWE2 241437Z 35009KT 11/M01 A3009 RMK A01 T01071009  RH  045%=      5-min Rain = 0
KWE2 241438Z 35009KT 11/M01 A3009 RMK A01 T01081009  RH  044%=      5-min Rain = 0
KWE2 241439Z 35009KT 11/M01 A3009 RMK A01 T01081008  RH  044%=      5-min Rain = 0
KWE2 241440Z 36008KT 11/M01 A3009 RMK A01 T01081008  RH  044%=      5-min Rain = 0
KWE2 241441Z 35009KT 11/M01 A3009 RMK A01 T01081006  RH  045%=      5-min Rain = 0
KWE2 241442Z 36010KT 11/M01 A3009 RMK A01 T01091007  RH  044%=      5-min Rain = 0
KWE2 241443Z 36010KT 11/M01 A3009 RMK A01 T01101006  RH  045%=      5-min Rain = 0
KWE2 241444Z 35010KT 11/M01 A3009 RMK A01 T01111006  RH  044%=      5-min Rain = 0
KWE2 241445Z 35009KT 11/M00 A3009 RMK A01 T01111004  RH  045%=      5-min Rain = 0
KWE2 241446Z 35010KT 11/M00 A3009 RMK A01 T01111004  RH  045%=      5-min Rain = 0
KWE2 241447Z 35010KT 11/M00 A3009 RMK A01 T01111004  RH  045%=      5-min Rain = 0
KWE2 241448Z 35009KT 11/M00 A3009 RMK A01 T01111003  RH  045%=      5-min Rain = 0
KWE2 241449Z 35008KT 11/M00 A3009 RMK A01 T01121001  RH  046%=      5-min Rain = 0
KWE2 241450Z 36008KT 11/00 A3009 RMK A01 T01130001  RH  046%=      5-min Rain = 0
KWE2 241451Z 36008KT 11/00 A3009 RMK A01 T01140002  RH  046%=      5-min Rain = 0
KWE2 241452Z 34009KT 11/00 A3009 RMK A01 T01140002  RH  046%=      5-min Rain = 0
KWE2 241453Z 35009KT 11/00 A3009 RMK A01 T01140002  RH  046%=      5-min Rain = 0
KWE2 241454Z 35009KT 11/00 A3009 RMK A01 T01130002  RH  046%=      5-min Rain = 0
KWE2 241455Z 35009KT 11/00 A3009 RMK A01 T01130003  RH  047%=      5-min Rain = 0
KWE2 241456Z 35010KT 11/01 A3009 RMK A01 T01130005  RH  047%=      5-min Rain = 0
KWE2 241457Z 35009KT 11/01 A3009 RMK A01 T01140007  RH  048%=      5-min Rain = 0
KWE2 241458Z 35010KT 12/01 A301 RMK A01 T01150007  RH  048%=      5-min Rain = 0
KWE2 241459Z 35009KT 12/01 A301 RMK A01 T01150008  RH  048%=      5-min Rain = 0
KWE2 241500Z 36008KT 12/01 A301 RMK A01 T01150009  RH  048%=      5-min Rain = 0
KWE2 241501Z 35008KT 12/01 A301 RMK A01 T01160010  RH  048%=      5-min Rain = 0
KWE2 241502Z 01006KT 12/01 A301 RMK A01 T01170012  RH  049%=      5-min Rain = 0
KWE2 241503Z 01008KT 12/01 A301 RMK A01 T01190014  RH  049%=      5-min Rain = 0
KWE2 241504Z 35008KT 12/01 A301 RMK A01 T01200013  RH  048%=      5-min Rain = 0
KWE2 241505Z 35007KT 12/01 A301 RMK A01 T01200013  RH  048%=      5-min Rain = 0
KWE2 241506Z 00008KT 12/02 A301 RMK A01 T01220017  RH  048%=      5-min Rain = 0
KWE2 241507Z 00007KT 12/01 A301 RMK A01 T01230013  RH  047%=      5-min Rain = 0
KWE2 241508Z 36006KT 12/01 A301 RMK A01 T01220014  RH  048%=      5-min Rain = 0
KWE2 241509Z 01007KT 12/02 A301 RMK A01 T01230015  RH  048%=      5-min Rain = 0
KWE2 241510Z 01007KT 13/02 A301 RMK A01 T01250016  RH  048%=      5-min Rain = 0
KWE2 241511Z 01006KT 13/02 A301 RMK A01 T01270018  RH  048%=      5-min Rain = 0
KWE2 241512Z 02007KT 13/02 A301 RMK A01 T01280021  RH  048%=      5-min Rain = 0
KWE2 241513Z 02008KT 13/02 A301 RMK A01 T01280018  RH  047%=      5-min Rain = 0
KWE2 241514Z 03007KT 13/02 A301 RMK A01 T01280019  RH  047%=      5-min Rain = 0
KWE2 241515Z 03009KT 13/02 A301 RMK A01 T01270019  RH  048%=      5-min Rain = 0
KWE2 241516Z 02008KT 13/02 A301 RMK A01 T01270020  RH  048%=      5-min Rain = 0
KWE2 241517Z 02006KT 13/02 A301 RMK A01 T01290022  RH  048%=      5-min Rain = 0
KWE2 241518Z 03005KT 13/02 A301 RMK A01 T01310024  RH  048%=      5-min Rain = 0
KWE2 241519Z 03005KT 13/03 A301 RMK A01 T01340026  RH  048%=      5-min Rain = 0
KWE2 241520Z 03004KT 13/03 A301 RMK A01 T01340025  RH  048%=      5-min Rain = 0
KWE2 241521Z 03005KT 14/03 A301 RMK A01 T01350026  RH  048%=      5-min Rain = 0
KWE2 241522Z 01006KT 13/02 A3011 RMK A01 T01340024  RH  047%=      5-min Rain = 0
KWE2 241523Z 03005KT 13/02 A3011 RMK A01 T01340024  RH  047%=      5-min Rain = 0
KWE2 241524Z 04006KT 14/03 A301 RMK A01 T01350029  RH  048%=      5-min Rain = 0
KWE2 241525Z 03005KT 14/03 A301 RMK A01 T01380025  RH  046%=      5-min Rain = 0
KWE2 241526Z 02006KT 14/03 A301 RMK A01 T01370025  RH  047%=      5-min Rain = 0
KWE2 241527Z 01006KT 14/02 A301 RMK A01 T01370024  RH  046%=      5-min Rain = 0
KWE2 241528Z 02006KT 14/02 A301 RMK A01 T01370023  RH  046%=      5-min Rain = 0
KWE2 241529Z 03006KT 14/02 A301 RMK A01 T01360024  RH  047%=      5-min Rain = 0
KWE2 241530Z 03005KT 14/03 A3011 RMK A01 T01370026  RH  047%=      5-min Rain = 0
KWE2 241531Z 03004KT 14/03 A3011 RMK A01 T01370026  RH  047%=      5-min Rain = 0
KWE2 241532Z 04005KT 14/03 A3011 RMK A01 T01390030  RH  048%=      5-min Rain = 0
KWE2 241533Z 03005KT 14/03 A3011 RMK A01 T01410028  RH  047%=      5-min Rain = 0
KWE2 241534Z 03004KT 14/03 A3011 RMK A01 T01410027  RH  046%=      5-min Rain = 0
KWE2 241535Z 03005KT 14/03 A3011 RMK A01 T01400028  RH  047%=      5-min Rain = 0
KWE2 241536Z 03005KT 14/03 A3011 RMK A01 T01430031  RH  047%=      5-min Rain = 0
KWE2 241537Z 02005KT 15/03 A3011 RMK A01 T01450026  RH  045%=      5-min Rain = 0
KWE2 241538Z 01004KT 15/03 A3011 RMK A01 T01450030  RH  046%=      5-min Rain = 0
KWE2 241539Z 02004KT 15/03 A3011 RMK A01 T01470030  RH  045%=      5-min Rain = 0
KWE2 241540Z 04005KT 15/03 A3011 RMK A01 T01470028  RH  045%=      5-min Rain = 0
KWE2 241541Z 03005KT 15/03 A3011 RMK A01 T01470030  RH  045%=      5-min Rain = 0
KWE2 241542Z 03004KT 15/03 A3011 RMK A01 T01490033  RH  046%=      5-min Rain = 0
KWE2 241543Z 02004KT 15/03 A3011 RMK A01 T01510032  RH  045%=      5-min Rain = 0
KWE2 241544Z 03005KT 15/03 A3011 RMK A01 T01520031  RH  044%=      5-min Rain = 0
KWE2 241545Z 05005KT 15/03 A3011 RMK A01 T01520029  RH  044%=      5-min Rain = 0
KWE2 241546Z 06005KT 15/03 A3011 RMK A01 T01510029  RH  044%=      5-min Rain = 0
KWE2 241547Z 06003KT 15/03 A3011 RMK A01 T01510033  RH  045%=      5-min Rain = 0
KWE2 241548Z 05004KT 15/04 A3011 RMK A01 T01520035  RH  046%=      5-min Rain = 0
KWE2 241549Z 05005KT 15/03 A3011 RMK A01 T01540033  RH  044%=      5-min Rain = 0
KWE2 241550Z 05004KT 15/03 A3011 RMK A01 T01540030  RH  043%=      5-min Rain = 0
KWE2 241551Z 03006KT 15/03 A3011 RMK A01 T01540029  RH  043%=      5-min Rain = 0
KWE2 241552Z 02005KT 15/03 A3011 RMK A01 T01540029  RH  043%=      5-min Rain = 0
KWE2 241553Z 02003KT 15/03 A3011 RMK A01 T01530025  RH  042%=      5-min Rain = 0
KWE2 241554Z 02003KT 15/03 A3011 RMK A01 T01510026  RH  043%=      5-min Rain = 0
KWE2 241555Z 04003KT 15/03 A3011 RMK A01 T01510029  RH  044%=      5-min Rain = 0
KWE2 241556Z 06003KT 15/03 A3011 RMK A01 T01530031  RH  044%=      5-min Rain = 0
KWE2 241557Z 05002KT 16/03 A3011 RMK A01 T01550027  RH  042%=      5-min Rain = 0
KWE2 241558Z 04001KT 16/03 A3011 RMK A01 T01560029  RH  043%=      5-min Rain = 0
KWE2 241559Z 04002KT 16/04 A3011 RMK A01 T01590035  RH  044%=      5-min Rain = 0
KWE2 241600Z 02005KT 16/03 A3011 RMK A01 T01610028  RH  041%=      5-min Rain = 0
KWE2 241601Z 00004KT 16/03 A3011 RMK A01 T01590025  RH  040%=      5-min Rain = 0
KWE2 241602Z 01004KT 16/03 A3011 RMK A01 T01590027  RH  041%=      5-min Rain = 0
KWE2 241603Z 02005KT 16/03 A3011 RMK A01 T01600029  RH  041%=      5-min Rain = 0
KWE2 241604Z 01004KT 16/03 A3011 RMK A01 T01600029  RH  041%=      5-min Rain = 0
KWE2 241605Z 01003KT 16/03 A3011 RMK A01 T01600026  RH  040%=      5-min Rain = 0
KWE2 241606Z 04002KT 16/03 A3011 RMK A01 T01610030  RH  042%=      5-min Rain = 0
KWE2 241607Z 06001KT 16/03 A3011 RMK A01 T01620026  RH  040%=      5-min Rain = 0
KWE2 241608Z 04002KT 17/03 A3011 RMK A01 T01650031  RH  041%=      5-min Rain = 0
KWE2 241609Z 03004KT 17/03 A3011 RMK A01 T01670030  RH  040%=      5-min Rain = 0
KWE2 241610Z 04003KT 17/03 A3011 RMK A01 T01670026  RH  039%=      5-min Rain = 0
KWE2 241611Z 01002KT 17/03 A3011 RMK A01 T01660027  RH  039%=      5-min Rain = 0
KWE2 241612Z 00002KT 17/03 A3011 RMK A01 T01660025  RH  039%=      5-min Rain = 0
KWE2 241613Z 00002KT 17/03 A3011 RMK A01 T01660025  RH  039%=      5-min Rain = 0
KWE2 241614Z 04003KT 17/03 A3011 RMK A01 T01650027  RH  039%=      5-min Rain = 0
KWE2 241615Z 05004KT 17/03 A3011 RMK A01 T01660030  RH  040%=      5-min Rain = 0
KWE2 241616Z 06003KT 17/03 A3011 RMK A01 T01680029  RH  039%=      5-min Rain = 0
KWE2 241617Z 05003KT 17/03 A3011 RMK A01 T01690031  RH  039%=      5-min Rain = 0
KWE2 241618Z 02004KT 17/03 A3011 RMK A01 T01690028  RH  039%=      5-min Rain = 0
KWE2 241619Z 00005KT 17/03 A3011 RMK A01 T01690030  RH  040%=      5-min Rain = 0
KWE2 241620Z 35003KT 17/03 A3011 RMK A01 T01690026  RH  038%=      5-min Rain = 0
KWE2 241621Z 34003KT 17/02 A3011 RMK A01 T01680024  RH  038%=      5-min Rain = 0
KWE2 241622Z 35002KT 17/03 A3011 RMK A01 T01680027  RH  039%=      5-min Rain = 0
KWE2 241623Z 01003KT 17/03 A3011 RMK A01 T01690030  RH  039%=      5-min Rain = 0
KWE2 241624Z 01004KT 17/03 A3011 RMK A01 T01720034  RH  040%=      5-min Rain = 0
KWE2 241625Z 01004KT 17/03 A3011 RMK A01 T01720029  RH  038%=      5-min Rain = 0
KWE2 241626Z 00003KT 17/03 A3011 RMK A01 T01700032  RH  039%=      5-min Rain = 0
KWE2 241627Z 34002KT 17/03 A3011 RMK A01 T01700028  RH  038%=      5-min Rain = 0
KWE2 241628Z 35003KT 17/03 A3011 RMK A01 T01700027  RH  038%=      5-min Rain = 0
KWE2 241629Z 00003KT 17/03 A3011 RMK A01 T01690027  RH  038%=      5-min Rain = 0
KWE2 241630Z 03004KT 17/03 A3011 RMK A01 T01690025  RH  038%=      5-min Rain = 0
KWE2 241631Z 04004KT 17/03 A3011 RMK A01 T01710029  RH  039%=      5-min Rain = 0
KWE2 241632Z 03003KT 17/03 A3011 RMK A01 T01720028  RH  038%=      5-min Rain = 0
KWE2 241633Z 03003KT 17/03 A3011 RMK A01 T01730025  RH  037%=      5-min Rain = 0
KWE2 241634Z 05003KT 17/03 A3011 RMK A01 T01740026  RH  037%=      5-min Rain = 0
KWE2 241635Z 06003KT 17/02 A3011 RMK A01 T01740024  RH  037%=      5-min Rain = 0
KWE2 241636Z 07003KT 18/02 A3011 RMK A01 T01750023  RH  036%=      5-min Rain = 0
KWE2 241637Z 03003KT 18/02 A3011 RMK A01 T01750023  RH  036%=      5-min Rain = 0
KWE2 241638Z 03004KT 18/02 A3011 RMK A01 T01760024  RH  036%=      5-min Rain = 0
KWE2 241639Z 01002KT 18/03 A3011 RMK A01 T01770025  RH  036%=      5-min Rain = 0
KWE2 241640Z 04003KT 18/02 A3011 RMK A01 T01770022  RH  035%=      5-min Rain = 0
KWE2 241641Z 01001KT 18/02 A3011 RMK A01 T01750017  RH  034%=      5-min Rain = 0
KWE2 241642Z 31001KT 17/02 A3011 RMK A01 T01740015  RH  034%=      5-min Rain = 0
KWE2 241643Z 29001KT 17/02 A3011 RMK A01 T01730016  RH  035%=      5-min Rain = 0
KWE2 241644Z 29001KT 17/02 A3011 RMK A01 T01730018  RH  035%=      5-min Rain = 0
KWE2 241645Z 33001KT 17/02 A3011 RMK A01 T01740021  RH  036%=      5-min Rain = 0
KWE2 241646Z 06000KT 18/02 A3011 RMK A01 T01760021  RH  035%=      5-min Rain = 0
KWE2 241647Z 06004KT 18/02 A3011 RMK A01 T01780024  RH  036%=      5-min Rain = 0
KWE2 241648Z 06003KT 18/02 A3011 RMK A01 T01780020  RH  035%=      5-min Rain = 0
KWE2 241649Z 06003KT 18/02 A3011 RMK A01 T01770022  RH  035%=      5-min Rain = 0
KWE2 241650Z 07002KT 18/02 A3011 RMK A01 T01770023  RH  036%=      5-min Rain = 0
KWE2 241651Z 08001KT 18/02 A3011 RMK A01 T01790023  RH  035%=      5-min Rain = 0
KWE2 241652Z 07001KT 18/02 A3011 RMK A01 T01820021  RH  034%=      5-min Rain = 0
KWE2 241653Z 08001KT 18/02 A3011 RMK A01 T01840024  RH  034%=      5-min Rain = 0
KWE2 241654Z 06000KT 19/03 A3011 RMK A01 T01870032  RH  036%=      5-min Rain = 0
KWE2 241655Z 02000KT 19/03 A3011 RMK A01 T01880026  RH  034%=      5-min Rain = 0
KWE2 241656Z 03001KT 19/02 A3011 RMK A01 T01880020  RH  033%=      5-min Rain = 0
KWE2 241657Z 03001KT 19/02 A3011 RMK A01 T01860020  RH  033%=      5-min Rain = 0
KWE2 241658Z 33000KT 19/02 A3011 RMK A01 T01850018  RH  033%=      5-min Rain = 0
KWE2 241659Z 33001KT 19/02 A3011 RMK A01 T01850022  RH  034%=      5-min Rain = 0
KWE2 241700Z 32001KT 19/02 A3011 RMK A01 T01850023  RH  034%=      5-min Rain = 0
KWE2 241701Z 36001KT 19/03 A3011 RMK A01 T01860027  RH  035%=      5-min Rain = 0
KWE2 241702Z 00003KT 19/03 A3011 RMK A01 T01880030  RH  035%=      5-min Rain = 0
KWE2 241703Z 01004KT 19/02 A3011 RMK A01 T01880022  RH  033%=      5-min Rain = 0
KWE2 241704Z 01002KT 19/02 A3011 RMK A01 T01850020  RH  033%=      5-min Rain = 0
KWE2 241705Z 10000KT 18/02 A3011 RMK A01 T01840024  RH  034%=      5-min Rain = 0
KWE2 241706Z 30002KT 19/03 A3011 RMK A01 T01860025  RH  034%=      5-min Rain = 0
KWE2 241707Z 36003KT 19/02 A3011 RMK A01 T01880023  RH  033%=      5-min Rain = 0
KWE2 241708Z 00004KT 19/02 A3011 RMK A01 T01870020  RH  033%=      5-min Rain = 0
KWE2 241709Z 36004KT 19/02 A3011 RMK A01 T01850024  RH  034%=      5-min Rain = 0
KWE2 241710Z 34002KT 19/02 A3011 RMK A01 T01870024  RH  034%=      5-min Rain = 0
KWE2 241711Z 28002KT 19/02 A3011 RMK A01 T01880021  RH  033%=      5-min Rain = 0
KWE2 241712Z 30001KT 19/02 A3011 RMK A01 T01880021  RH  033%=      5-min Rain = 0
KWE2 241713Z 27003KT 19/02 A3011 RMK A01 T01890023  RH  033%=      5-min Rain = 0
KWE2 241714Z 25002KT 19/02 A3011 RMK A01 T01890021  RH  033%=      5-min Rain = 0
KWE2 241715Z 24002KT 19/02 A3011 RMK A01 T01890022  RH  033%=      5-min Rain = 0
KWE2 241716Z 23003KT 19/02 A3011 RMK A01 T01880022  RH  033%=      5-min Rain = 0
KWE2 241717Z 23003KT 19/02 A3011 RMK A01 T01880022  RH  033%=      5-min Rain = 0
KWE2 241718Z 22003KT 19/02 A3011 RMK A01 T01880023  RH  033%=      5-min Rain = 0
KWE2 241719Z 24003KT 19/02 A3011 RMK A01 T01890020  RH  032%=      5-min Rain = 0
KWE2 241720Z 24001KT 19/02 A3011 RMK A01 T01880021  RH  033%=      5-min Rain = 0
KWE2 241721Z 22002KT 19/02 A3011 RMK A01 T01880023  RH  033%=      5-min Rain = 0
KWE2 241722Z 35003KT 19/03 A3011 RMK A01 T01910027  RH  033%=      5-min Rain = 0
KWE2 241723Z 34004KT 19/02 A3011 RMK A01 T01930023  RH  032%=      5-min Rain = 0
KWE2 241724Z 32003KT 19/02 A3011 RMK A01 T01920019  RH  031%=      5-min Rain = 0
KWE2 241725Z 34002KT 19/02 A3011 RMK A01 T01900020  RH  032%=      5-min Rain = 0
KWE2 241726Z 34002KT 19/03 A3011 RMK A01 T01910025  RH  033%=      5-min Rain = 0
KWE2 241727Z 34001KT 19/02 A3011 RMK A01 T01920019  RH  032%=      5-min Rain = 0
KWE2 241728Z 09001KT 19/02 A3011 RMK A01 T01920015  RH  031%=      5-min Rain = 0
KWE2 241729Z 02001KT 19/02 A3011 RMK A01 T01920015  RH  031%=      5-min Rain = 0
KWE2 241730Z 30001KT 19/02 A3011 RMK A01 T01910021  RH  032%=      5-min Rain = 0
KWE2 241731Z 24001KT 19/02 A3011 RMK A01 T01930022  RH  032%=      5-min Rain = 0
KWE2 241732Z 25003KT 20/01 A3011 RMK A01 T01950012  RH  030%=      5-min Rain = 0
KWE2 241733Z 32003KT 20/M01 A3011 RMK A01 T01971007  RH  025%=      5-min Rain = 0
KWE2 241734Z 31005KT 20/M01 A3011 RMK A01 T01981011  RH  025%=      5-min Rain = 0
KWE2 241735Z 34006KT 20/M02 A3011 RMK A01 T01981022  RH  022%=      5-min Rain = 0
KWE2 241736Z 35004KT 20/M02 A3011 RMK A01 T01971021  RH  023%=      5-min Rain = 0
KWE2 241737Z 35002KT 20/M01 A3011 RMK A01 T01961012  RH  025%=      5-min Rain = 0
KWE2 241738Z 31005KT 20/M01 A3011 RMK A01 T01961012  RH  025%=      5-min Rain = 0
KWE2 241739Z 30005KT 20/M01 A3011 RMK A01 T01961013  RH  024%=      5-min Rain = 0
KWE2 241740Z 30003KT 19/M01 A3011 RMK A01 T01941013  RH  025%=      5-min Rain = 0
KWE2 241741Z 34003KT 19/M01 A3011 RMK A01 T01941010  RH  025%=      5-min Rain = 0
KWE2 241742Z 27003KT 19/M01 A3011 RMK A01 T01941010  RH  025%=      5-min Rain = 0
KWE2 241743Z 17001KT 20/M01 A3011 RMK A01 T01951010  RH  025%=      5-min Rain = 0
KWE2 241744Z 30002KT 20/M00 A3011 RMK A01 T01971003  RH  026%=      5-min Rain = 0
KWE2 241745Z 32004KT 20/M00 A3011 RMK A01 T01991002  RH  026%=      5-min Rain = 0
KWE2 241746Z 32003KT 20/M01 A3011 RMK A01 T01991007  RH  025%=      5-min Rain = 0
KWE2 241747Z 30005KT 20/M00 A3011 RMK A01 T01991003  RH  026%=      5-min Rain = 0
KWE2 241748Z 33006KT 20/00 A3011 RMK A01 T02000002  RH  027%=      5-min Rain = 0
KWE2 241749Z 35007KT 20/01 A3011 RMK A01 T02010007  RH  027%=      5-min Rain = 0
KWE2 241750Z 35006KT 20/01 A3011 RMK A01 T02000006  RH  027%=      5-min Rain = 0
KWE2 241751Z 35004KT 20/01 A3011 RMK A01 T01990009  RH  028%=      5-min Rain = 0
KWE2 241752Z 30003KT 20/01 A3011 RMK A01 T01990006  RH  027%=      5-min Rain = 0
KWE2 241753Z 36003KT 20/01 A3011 RMK A01 T02000009  RH  028%=      5-min Rain = 0
KWE2 241754Z 00003KT 20/01 A3011 RMK A01 T02010011  RH  028%=      5-min Rain = 0
KWE2 241755Z 01003KT 20/01 A3011 RMK A01 T02000008  RH  028%=      5-min Rain = 0
KWE2 241756Z 01003KT 20/01 A3011 RMK A01 T01980009  RH  028%=      5-min Rain = 0
KWE2 241757Z 00002KT 20/01 A3011 RMK A01 T01970009  RH  028%=      5-min Rain = 0
KWE2 241758Z 28002KT 20/01 A3011 RMK A01 T01960008  RH  028%=      5-min Rain = 0
KWE2 241759Z 27005KT 20/M00 A3011 RMK A01 T01961004  RH  026%=      5-min Rain = 0
KWE2 241800Z 30007KT 20/M00 A3011 RMK A01 T01981004  RH  026%=      5-min Rain = 0
KWE2 241801Z 32007KT 20/M00 A3011 RMK A01 T01981002  RH  026%=      5-min Rain = 0
KWE2 241802Z 33006KT 20/00 A3011 RMK A01 T01990001  RH  026%=      5-min Rain = 0
KWE2 241803Z 28004KT 20/M00 A3011 RMK A01 T02011002  RH  026%=      5-min Rain = 0
KWE2 241804Z 28006KT 20/M01 A3011 RMK A01 T02031009  RH  024%=      5-min Rain = 0
KWE2 241805Z 28005KT 20/M01 A3011 RMK A01 T02031010  RH  024%=      5-min Rain = 0
KWE2 241806Z 28006KT 20/M01 A3011 RMK A01 T02011005  RH  025%=      5-min Rain = 0
KWE2 241807Z 27004KT 20/M01 A3011 RMK A01 T02001006  RH  025%=      5-min Rain = 0
KWE2 241808Z 28005KT 20/M01 A3011 RMK A01 T02001006  RH  025%=      5-min Rain = 0
KWE2 241809Z 27004KT 20/M00 A3011 RMK A01 T02001003  RH  025%=      5-min Rain = 0
KWE2 241810Z 26004KT 20/M00 A3011 RMK A01 T02011004  RH  025%=      5-min Rain = 0
KWE2 241811Z 28003KT 20/M01 A3011 RMK A01 T02011005  RH  025%=      5-min Rain = 0
KWE2 241812Z 29002KT 20/M01 A3011 RMK A01 T01991005  RH  025%=      5-min Rain = 0
KWE2 241813Z 29005KT 20/00 A3011 RMK A01 T01990001  RH  027%=      5-min Rain = 0
KWE2 241814Z 29005KT 20/00 A3011 RMK A01 T02000002  RH  027%=      5-min Rain = 0
KWE2 241815Z 31005KT 20/00 A3011 RMK A01 T02010001  RH  026%=      5-min Rain = 0
KWE2 241816Z 32004KT 20/M00 A3011 RMK A01 T02001001  RH  026%=      5-min Rain = 0
KWE2 241817Z 29002KT 20/00 A3011 RMK A01 T01990002  RH  027%=      5-min Rain = 0
KWE2 241818Z 25002KT 20/00 A3011 RMK A01 T019900-0  RH  026%=      5-min Rain = 0
KWE2 241819Z 26004KT 20/01 A3011 RMK A01 T02020007  RH  027%=      5-min Rain = 0
KWE2 241820Z 26003KT 20/01 A301 RMK A01 T02030005  RH  027%=      5-min Rain = 0
KWE2 241821Z 34001KT 20/01 A301 RMK A01 T02040007  RH  027%=      5-min Rain = 0
KWE2 241822Z 30002KT 20/01 A301 RMK A01 T02030010  RH  028%=      5-min Rain = 0
KWE2 241823Z 34003KT 20/01 A301 RMK A01 T02040005  RH  026%=      5-min Rain = 0
KWE2 241824Z 03001KT 20/01 A301 RMK A01 T02030005  RH  027%=      5-min Rain = 0
KWE2 241825Z 02002KT 20/01 A301 RMK A01 T02020005  RH  027%=      5-min Rain = 0
KWE2 241826Z 34000KT 20/01 A301 RMK A01 T02030010  RH  028%=      5-min Rain = 0
KWE2 241827Z 22003KT 21/01 A301 RMK A01 T02050006  RH  026%=      5-min Rain = 0
KWE2 241828Z 21005KT 21/00 A301 RMK A01 T02070002  RH  025%=      5-min Rain = 0
KWE2 241829Z 19004KT 21/00 A301 RMK A01 T02080002  RH  025%=      5-min Rain = 0
KWE2 241830Z 18004KT 21/00 A301 RMK A01 T02080001  RH  025%=      5-min Rain = 0
KWE2 241831Z 19002KT 21/00 A301 RMK A01 T02080002  RH  025%=      5-min Rain = 0
KWE2 241832Z 20001KT 21/00 A301 RMK A01 T02090002  RH  025%=      5-min Rain = 0
KWE2 241833Z 18004KT 21/01 A3009 RMK A01 T02100006  RH  026%=      5-min Rain = 0
KWE2 241834Z 17004KT 21/00 A3009 RMK A01 T02120003  RH  025%=      5-min Rain = 0
KWE2 241835Z 20003KT 21/00 A3009 RMK A01 T02120003  RH  025%=      5-min Rain = 0
KWE2 241836Z 17002KT 21/00 A3009 RMK A01 T02120003  RH  025%=      5-min Rain = 0
KWE2 241837Z 18003KT 21/00 A3009 RMK A01 T02130002  RH  025%=      5-min Rain = 0
KWE2 241838Z 15001KT 21/00 A3009 RMK A01 T02130001  RH  024%=      5-min Rain = 0
KWE2 241839Z 05000KT 21/01 A3009 RMK A01 T02130009  RH  026%=      5-min Rain = 0
KWE2 241840Z 17002KT 22/01 A3009 RMK A01 T02150009  RH  025%=      5-min Rain = 0
KWE2 241841Z 19003KT 22/00 A3009 RMK A01 T02170004  RH  024%=      5-min Rain = 0
KWE2 241842Z 22005KT 22/00 A3009 RMK A01 T02180001  RH  024%=      5-min Rain = 0
KWE2 241843Z 23006KT 22/00 A3009 RMK A01 T02180002  RH  024%=      5-min Rain = 0
KWE2 241844Z 29004KT 22/M00 A3009 RMK A01 T02181001  RH  023%=      5-min Rain = 0
KWE2 241845Z 35001KT 22/M00 A3009 RMK A01 T02151003  RH  023%=      5-min Rain = 0
KWE2 241846Z 01001KT 21/M01 A3009 RMK A01 T02141005  RH  023%=      5-min Rain = 0
KWE2 241847Z 33002KT 21/M00 A3008 RMK A01 T02141002  RH  024%=      5-min Rain = 0
KWE2 241848Z 31002KT 21/M00 A3008 RMK A01 T02131004  RH  023%=      5-min Rain = 0
KWE2 241849Z 26004KT 21/M00 A3008 RMK A01 T02131002  RH  024%=      5-min Rain = 0
KWE2 241850Z 25005KT 21/M00 A3008 RMK A01 T02141003  RH  024%=      5-min Rain = 0
KWE2 241851Z 24005KT 21/M00 A3008 RMK A01 T02141002  RH  024%=      5-min Rain = 0
KWE2 241852Z 19003KT 21/M00 A3008 RMK A01 T02131001  RH  024%=      5-min Rain = 0
KWE2 241853Z 25003KT 21/00 A3008 RMK A01 T021200-0  RH  024%=      5-min Rain = 0
KWE2 241854Z 29002KT 21/M00 A3008 RMK A01 T02121001  RH  024%=      5-min Rain = 0
KWE2 241855Z 28001KT 21/00 A3008 RMK A01 T02130002  RH  025%=      5-min Rain = 0
KWE2 241856Z 28001KT 21/00 A3008 RMK A01 T021400-0  RH  024%=      5-min Rain = 0
KWE2 241857Z 24003KT 22/00 A3008 RMK A01 T02170001  RH  024%=      5-min Rain = 0
KWE2 241858Z 23004KT 22/M01 A3008 RMK A01 T02201005  RH  022%=      5-min Rain = 0
KWE2 241859Z 23005KT 22/M01 A3008 RMK A01 T02221008  RH  022%=      5-min Rain = 0
KWE2 241900Z 26007KT 23/M01 A3008 RMK A01 T02251008  RH  021%=      5-min Rain = 0
KWE2 241901Z 25009KT 23/M01 A3008 RMK A01 T02251011  RH  021%=      5-min Rain = 0
KWE2 241902Z 26007KT 23/M01 A3008 RMK A01 T02251012  RH  020%=      5-min Rain = 0
KWE2 241903Z 27005G11KT 22/M01 A3008 RMK A01 T02241009  RH  021%=      5-min Rain = 0
KWE2 241904Z 25008KT 23/M01 A3008 RMK A01 T02261006  RH  021%=      5-min Rain = 0
KWE2 241905Z 26006KT 23/M01 A3008 RMK A01 T02261009  RH  021%=      5-min Rain = 0
KWE2 241906Z 26006KT 23/M01 A3008 RMK A01 T02251008  RH  021%=      5-min Rain = 0
KWE2 241907Z 25007G12KT 23/M01 A3008 RMK A01 T02251007  RH  021%=      5-min Rain = 0
KWE2 241908Z 25008KT 23/M01 A3008 RMK A01 T02251008  RH  021%=      5-min Rain = 0
KWE2 241909Z 25006KT 23/M01 A3008 RMK A01 T02261010  RH  021%=      5-min Rain = 0
KWE2 241910Z 23005KT 23/M01 A3008 RMK A01 T02261008  RH  021%=      5-min Rain = 0
KWE2 241911Z 23005KT 23/M01 A3008 RMK A01 T02271007  RH  021%=      5-min Rain = 0
KWE2 241912Z 32004KT 23/M01 A3008 RMK A01 T02271007  RH  021%=      5-min Rain = 0
KWE2 241913Z 25002KT 23/M00 A3008 RMK A01 T02281002  RH  022%=      5-min Rain = 0
KWE2 241914Z 29009KT 23/M01 A3008 RMK A01 T02291011  RH  020%=      5-min Rain = 0
KWE2 241915Z 29007KT 23/M02 A3008 RMK A01 T02291015  RH  020%=      5-min Rain = 0
KWE2 241916Z 29004KT 23/M02 A3008 RMK A01 T02271016  RH  020%=      5-min Rain = 0
KWE2 241917Z 28007G12KT 23/M02 A3008 RMK A01 T02251015  RH  020%=      5-min Rain = 0
KWE2 241918Z 29010KT 23/M01 A3008 RMK A01 T02291014  RH  020%=      5-min Rain = 0
KWE2 241919Z 29010KT 23/M02 A3008 RMK A01 T02311019  RH  019%=      5-min Rain = 0
KWE2 241920Z 30010KT 23/M02 A3008 RMK A01 T02311018  RH  019%=      5-min Rain = 0
KWE2 241921Z 30010KT 23/M02 A3007 RMK A01 T02311018  RH  019%=      5-min Rain = 0
KWE2 241922Z 30008KT 23/M02 A3007 RMK A01 T02301018  RH  019%=      5-min Rain = 0
KWE2 241923Z 29009KT 23/M02 A3007 RMK A01 T02291017  RH  019%=      5-min Rain = 0
KWE2 241924Z 29009KT 23/M02 A3007 RMK A01 T02301016  RH  019%=      5-min Rain = 0
KWE2 241925Z 29005KT 23/M02 A3007 RMK A01 T02311016  RH  019%=      5-min Rain = 0
KWE2 241926Z 30007KT 23/M01 A3007 RMK A01 T02311012  RH  020%=      5-min Rain = 0
KWE2 241927Z 29009KT 23/M01 A3007 RMK A01 T02321013  RH  020%=      5-min Rain = 0
KWE2 241928Z 29007KT 23/M02 A3007 RMK A01 T02331015  RH  019%=      5-min Rain = 0
KWE2 241929Z 27005KT 23/M02 A3007 RMK A01 T02321015  RH  019%=      5-min Rain = 0
KWE2 241930Z 27005KT 23/M01 A3007 RMK A01 T02321013  RH  020%=      5-min Rain = 0
KWE2 241931Z 25004KT 23/M01 A3007 RMK A01 T02311014  RH  020%=      5-min Rain = 0
KWE2 241932Z 26003KT 23/M01 A3007 RMK A01 T02301010  RH  020%=      5-min Rain = 0
KWE2 241933Z 25002KT 23/M01 A3007 RMK A01 T02301008  RH  021%=      5-min Rain = 0
KWE2 241934Z 29002KT 23/M01 A3007 RMK A01 T02301007  RH  021%=      5-min Rain = 0
KWE2 241935Z 29003KT 23/M01 A3007 RMK A01 T02311007  RH  021%=      5-min Rain = 0
KWE2 241936Z 30004KT 23/M01 A3007 RMK A01 T02321010  RH  020%=      5-min Rain = 0
KWE2 241937Z 28006KT 23/M01 A3007 RMK A01 T02321012  RH  020%=      5-min Rain = 0
KWE2 241938Z 26006KT 23/M01 A3007 RMK A01 T02331009  RH  020%=      5-min Rain = 0
KWE2 241939Z 26009KT 23/M01 A3007 RMK A01 T02341008  RH  020%=      5-min Rain = 0
KWE2 241940Z 28007KT 23/M01 A3007 RMK A01 T02331008  RH  020%=      5-min Rain = 0
KWE2 241941Z 29006KT 23/M01 A3006 RMK A01 T02321009  RH  020%=      5-min Rain = 0
KWE2 241942Z 26005KT 23/M01 A3006 RMK A01 T02301007  RH  021%=      5-min Rain = 0
KWE2 241943Z 28006G14KT 23/M01 A3006 RMK A01 T02301006  RH  021%=      5-min Rain = 0
KWE2 241944Z 28007KT 23/M00 A3006 RMK A01 T02331004  RH  021%=      5-min Rain = 0
KWE2 241945Z 28005KT 24/M00 A3006 RMK A01 T02351004  RH  020%=      5-min Rain = 0
KWE2 241946Z 29008KT 24/M00 A3006 RMK A01 T02381003  RH  020%=      5-min Rain = 0
KWE2 241947Z 29005KT 24/M01 A3006 RMK A01 T02381007  RH  020%=      5-min Rain = 0
KWE2 241948Z 28006KT 24/M00 A3006 RMK A01 T02351004  RH  021%=      5-min Rain = 0
KWE2 241949Z 27007KT 23/M01 A3006 RMK A01 T02341008  RH  020%=      5-min Rain = 0
KWE2 241950Z 28007KT 23/M01 A3006 RMK A01 T02331009  RH  020%=      5-min Rain = 0
KWE2 241951Z 29005KT 23/M01 A3006 RMK A01 T02331012  RH  019%=      5-min Rain = 0
KWE2 241952Z 29007KT 23/M01 A3006 RMK A01 T02341009  RH  020%=      5-min Rain = 0
KWE2 241953Z 29006KT 24/M01 A3006 RMK A01 T02351010  RH  020%=      5-min Rain = 0
KWE2 241954Z 29003KT 24/M01 A3006 RMK A01 T02351011  RH  019%=      5-min Rain = 0
KWE2 241955Z 29002KT 23/M01 A3006 RMK A01 T02331006  RH  021%=      5-min Rain = 0
KWE2 241956Z 29004G9KT 23/M01 A3006 RMK A01 T02331006  RH  021%=      5-min Rain = 0
KWE2 241957Z 26009KT 24/M01 A3006 RMK A01 T02351006  RH  020%=      5-min Rain = 0
KWE2 241958Z 26004KT 24/M01 A3006 RMK A01 T02371008  RH  020%=      5-min Rain = 0
KWE2 241959Z 26006KT 24/M01 A3006 RMK A01 T02361007  RH  020%=      5-min Rain = 0
KWE2 242000Z 25007KT 24/M01 A3006 RMK A01 T02371006  RH  020%=      5-min Rain = 0
KWE2 242001Z 23007KT 24/M01 A3006 RMK A01 T02401009  RH  019%=      5-min Rain = 0
KWE2 242002Z 24004KT 24/M01 A3006 RMK A01 T02381012  RH  019%=      5-min Rain = 0
KWE2 242003Z 23003KT 24/M01 A3006 RMK A01 T02361005  RH  020%=      5-min Rain = 0
KWE2 242004Z 25005KT 24/M01 A3006 RMK A01 T02391007  RH  020%=      5-min Rain = 0
KWE2 242005Z 27007KT 24/M01 A3006 RMK A01 T02401013  RH  019%=      5-min Rain = 0
KWE2 242006Z 29005KT 24/M02 A3005 RMK A01 T02371016  RH  019%=      5-min Rain = 0
KWE2 242007Z 29004KT 24/M01 A3005 RMK A01 T02361010  RH  019%=      5-min Rain = 0
KWE2 242008Z 28004KT 24/M02 A3005 RMK A01 T02371015  RH  019%=      5-min Rain = 0
KWE2 242009Z 28004KT 24/M02 A3005 RMK A01 T02371015  RH  019%=      5-min Rain = 0
KWE2 242010Z 31005KT 24/M01 A3005 RMK A01 T02371012  RH  019%=      5-min Rain = 0
KWE2 242011Z 31006KT 24/M01 A3005 RMK A01 T02371012  RH  019%=      5-min Rain = 0
KWE2 242012Z 32008KT 24/M01 A3005 RMK A01 T02381012  RH  019%=      5-min Rain = 0
KWE2 242013Z 32007KT 24/M02 A3005 RMK A01 T02381015  RH  019%=      5-min Rain = 0
KWE2 242014Z 32005KT 24/M02 A3005 RMK A01 T02381016  RH  018%=      5-min Rain = 0
KWE2 242015Z 30005KT 24/M01 A3005 RMK A01 T02381011  RH  019%=      5-min Rain = 0
KWE2 242016Z 30006KT 24/M02 A3005 RMK A01 T02401015  RH  018%=      5-min Rain = 0
KWE2 242017Z 30004KT 24/M02 A3005 RMK A01 T02371017  RH  018%=      5-min Rain = 0
KWE2 242018Z 29002KT 24/M02 A3005 RMK A01 T02351015  RH  019%=      5-min Rain = 0
KWE2 242019Z 27005KT 24/M02 A3005 RMK A01 T02351015  RH  019%=      5-min Rain = 0
KWE2 242020Z 24006KT 24/M01 A3005 RMK A01 T02371012  RH  019%=      5-min Rain = 0
KWE2 242021Z 27002KT 24/M01 A3005 RMK A01 T02391008  RH  019%=      5-min Rain = 0
KWE2 242022Z 35002KT 24/M01 A3005 RMK A01 T02421013  RH  018%=      5-min Rain = 0
KWE2 242023Z 28004KT 24/M01 A3005 RMK A01 T02411009  RH  019%=      5-min Rain = 0
KWE2 242024Z 28002KT 24/M01 A3005 RMK A01 T02411013  RH  019%=      5-min Rain = 0
KWE2 242025Z 28002KT 24/M01 A3005 RMK A01 T02421013  RH  018%=      5-min Rain = 0
KWE2 242026Z 27002KT 24/M01 A3005 RMK A01 T02431013  RH  018%=      5-min Rain = 0
KWE2 242027Z 26006KT 24/M01 A3005 RMK A01 T02441014  RH  018%=      5-min Rain = 0
KWE2 242028Z 27005KT 24/M01 A3005 RMK A01 T02441013  RH  018%=      5-min Rain = 0
KWE2 242029Z 24005KT 24/M01 A3005 RMK A01 T02431010  RH  019%=      5-min Rain = 0
KWE2 242030Z 23006KT 24/M01 A3005 RMK A01 T02431009  RH  019%=      5-min Rain = 0
KWE2 242031Z 20005KT 24/M01 A3005 RMK A01 T02441009  RH  019%=      5-min Rain = 0
KWE2 242032Z 23006KT 24/M00 A3004 RMK A01 T02441004  RH  019%=      5-min Rain = 0
KWE2 242033Z 30004KT 25/M01 A3004 RMK A01 T02471009  RH  018%=      5-min Rain = 0
KWE2 242034Z 32003KT 25/M01 A3004 RMK A01 T02471009  RH  018%=      5-min Rain = 0
KWE2 242035Z 31004KT 25/M01 A3004 RMK A01 T02461008  RH  019%=      5-min Rain = 0
KWE2 242036Z 29004KT 25/M00 A3004 RMK A01 T02471004  RH  019%=      5-min Rain = 0
KWE2 242037Z 28005KT 25/M01 A3005 RMK A01 T02481011  RH  018%=      5-min Rain = 0
KWE2 242038Z 28012KT 25/M02 A3005 RMK A01 T02471022  RH  017%=      5-min Rain = 0
KWE2 242039Z 30006G13KT 25/M04 A3004 RMK A01 T02461037  RH  015%=      5-min Rain = 0
KWE2 242040Z 27007KT 24/M03 A3004 RMK A01 T02431032  RH  016%=      5-min Rain = 0
KWE2 242041Z 26004KT 24/M03 A3004 RMK A01 T02421034  RH  016%=      5-min Rain = 0
KWE2 242042Z 23007KT 24/M03 A3004 RMK A01 T02421028  RH  016%=      5-min Rain = 0
KWE2 242043Z 22009KT 25/M03 A3004 RMK A01 T02451029  RH  016%=      5-min Rain = 0
KWE2 242044Z 22008KT 25/M03 A3004 RMK A01 T02471029  RH  016%=      5-min Rain = 0
KWE2 242045Z 23006KT 25/M03 A3004 RMK A01 T02501029  RH  016%=      5-min Rain = 0
KWE2 242046Z 23007KT 25/M03 A3004 RMK A01 T02511033  RH  015%=      5-min Rain = 0
KWE2 242047Z 23004KT 25/M03 A3004 RMK A01 T02481027  RH  016%=      5-min Rain = 0
KWE2 242048Z 25007KT 25/M03 A3004 RMK A01 T02481027  RH  016%=      5-min Rain = 0
KWE2 242049Z 25007KT 25/M03 A3004 RMK A01 T02491027  RH  016%=      5-min Rain = 0
KWE2 242050Z 26009KT 25/M03 A3004 RMK A01 T02511028  RH  016%=      5-min Rain = 0
KWE2 242051Z 24010KT 25/M02 A3004 RMK A01 T02511024  RH  016%=      5-min Rain = 0
KWE2 242052Z 23008KT 25/M03 A3004 RMK A01 T02501025  RH  016%=      5-min Rain = 0
KWE2 242053Z 26010KT 25/M02 A3004 RMK A01 T02501024  RH  016%=      5-min Rain = 0
KWE2 242054Z 27012KT 25/M03 A3004 RMK A01 T02521025  RH  016%=      5-min Rain = 0
KWE2 242055Z 28007KT 25/M03 A3004 RMK A01 T02531026  RH  016%=      5-min Rain = 0
KWE2 242056Z 30006KT 25/M03 A3004 RMK A01 T02521029  RH  015%=      5-min Rain = 0
KWE2 242057Z 30008KT 25/M03 A3004 RMK A01 T02491028  RH  016%=      5-min Rain = 0
KWE2 242058Z 29004KT 25/M03 A3004 RMK A01 T02481029  RH  016%=      5-min Rain = 0
KWE2 242059Z 28006KT 25/M03 A3004 RMK A01 T02471029  RH  016%=      5-min Rain = 0
KWE2 242100Z 25004KT 25/M03 A3004 RMK A01 T02451028  RH  016%=      5-min Rain = 0
KWE2 242101Z 21002KT 25/M03 A3003 RMK A01 T02451026  RH  016%=      5-min Rain = 0
KWE2 242102Z 21001KT 25/M03 A3003 RMK A01 T02461025  RH  016%=      5-min Rain = 0
KWE2 242103Z 31003KT 25/M02 A3004 RMK A01 T02481018  RH  017%=      5-min Rain = 0
KWE2 242104Z 33007KT 25/M03 A3003 RMK A01 T02501026  RH  016%=      5-min Rain = 0
KWE2 242105Z 33005KT 25/M03 A3003 RMK A01 T02501028  RH  016%=      5-min Rain = 0
KWE2 242106Z 32003KT 25/M03 A3003 RMK A01 T02461027  RH  016%=      5-min Rain = 0
KWE2 242107Z 29006KT 25/M02 A3003 RMK A01 T02471024  RH  016%=      5-min Rain = 0
KWE2 242108Z 28005KT 25/M03 A3003 RMK A01 T02481027  RH  016%=      5-min Rain = 0
KWE2 242109Z 27001KT 25/M03 A3003 RMK A01 T02471027  RH  016%=      5-min Rain = 0
KWE2 242110Z 26005KT 25/M02 A3003 RMK A01 T02461023  RH  017%=      5-min Rain = 0
KWE2 242111Z 26005KT 25/M02 A3003 RMK A01 T02471023  RH  017%=      5-min Rain = 0
KWE2 242112Z 30005KT 25/M02 A3003 RMK A01 T02471021  RH  017%=      5-min Rain = 0
KWE2 242113Z 34005KT 25/M02 A3003 RMK A01 T02491023  RH  016%=      5-min Rain = 0
KWE2 242114Z 02005KT 25/M02 A3003 RMK A01 T02481019  RH  017%=      5-min Rain = 0
KWE2 242115Z 35008G15KT 25/M01 A3003 RMK A01 T02491011  RH  018%=      5-min Rain = 0
KWE2 242116Z 27011G18KT 25/M02 A3003 RMK A01 T02511021  RH  016%=      5-min Rain = 0
KWE2 242117Z 30006KT 25/M03 A3003 RMK A01 T02521034  RH  015%=      5-min Rain = 0
KWE2 242118Z 27008G13KT 25/M03 A3003 RMK A01 T02511033  RH  015%=      5-min Rain = 0
KWE2 242119Z 24011KT 26/M03 A3003 RMK A01 T02551028  RH  015%=      5-min Rain = 0
KWE2 242120Z 24012KT 26/M04 A3003 RMK A01 T02581035  RH  014%=      5-min Rain = 0
KWE2 242121Z 25010KT 26/M04 A3003 RMK A01 T02571035  RH  014%=      5-min Rain = 0
KWE2 242122Z 23010KT 26/M04 A3003 RMK A01 T02571038  RH  014%=      5-min Rain = 0
KWE2 242123Z 22009KT 26/M04 A3003 RMK A01 T02561038  RH  014%=      5-min Rain = 0
KWE2 242124Z 23007KT 25/M04 A3003 RMK A01 T02531036  RH  014%=      5-min Rain = 0
KWE2 242125Z 28004KT 25/M04 A3003 RMK A01 T02531035  RH  015%=      5-min Rain = 0
KWE2 242126Z 24007KT 25/M04 A3003 RMK A01 T02541035  RH  015%=      5-min Rain = 0
KWE2 242127Z 23008KT 26/M04 A3003 RMK A01 T02571035  RH  014%=      5-min Rain = 0
KWE2 242128Z 23007KT 26/M04 A3003 RMK A01 T02561035  RH  014%=      5-min Rain = 0
KWE2 242129Z 23009KT 26/M04 A3003 RMK A01 T02561035  RH  014%=      5-min Rain = 0
KWE2 242130Z 33011KT 26/M03 A3002 RMK A01 T02571027  RH  015%=      5-min Rain = 0
KWE2 242131Z 33007KT 26/M03 A3003 RMK A01 T02561026  RH  015%=      5-min Rain = 0
KWE2 242132Z 31003KT 25/M03 A3003 RMK A01 T02541026  RH  016%=      5-min Rain = 0
KWE2 242133Z 28006KT 25/M03 A3003 RMK A01 T02521026  RH  016%=      5-min Rain = 0
KWE2 242134Z 29009KT 25/M03 A3003 RMK A01 T02541027  RH  016%=      5-min Rain = 0
KWE2 242135Z 29007KT 26/M03 A3003 RMK A01 T02551028  RH  015%=      5-min Rain = 0
KWE2 242136Z 30007KT 25/M03 A3003 RMK A01 T02531026  RH  016%=      5-min Rain = 0
KWE2 242137Z 31008KT 25/M03 A3003 RMK A01 T02521028  RH  016%=      5-min Rain = 0
KWE2 242138Z 32007KT 25/M03 A3003 RMK A01 T02511031  RH  015%=      5-min Rain = 0
KWE2 242139Z 30006KT 25/M03 A3003 RMK A01 T02501027  RH  016%=      5-min Rain = 0
KWE2 242140Z 26006KT 25/M04 A3003 RMK A01 T02531036  RH  015%=      5-min Rain = 0
KWE2 242141Z 27007KT 26/M03 A3003 RMK A01 T02551034  RH  015%=      5-min Rain = 0
KWE2 242142Z 27010KT 26/M03 A3003 RMK A01 T02581033  RH  014%=      5-min Rain = 0
KWE2 242143Z 27009KT 26/M04 A3003 RMK A01 T02591037  RH  014%=      5-min Rain = 0
KWE2 242144Z 28006KT 26/M04 A3003 RMK A01 T02571039  RH  014%=      5-min Rain = 0
KWE2 242145Z 32005KT 26/M04 A3002 RMK A01 T02551037  RH  014%=      5-min Rain = 0
KWE2 242146Z 31006KT 25/M04 A3002 RMK A01 T02541038  RH  014%=      5-min Rain = 0
KWE2 242147Z 29005KT 25/M04 A3002 RMK A01 T02541039  RH  014%=      5-min Rain = 0
KWE2 242148Z 26004KT 25/M04 A3002 RMK A01 T02531036  RH  014%=      5-min Rain = 0
KWE2 242149Z 32009KT 25/M03 A3002 RMK A01 T02541033  RH  015%=      5-min Rain = 0
KWE2 242150Z 29006KT 25/M03 A3002 RMK A01 T02541031  RH  015%=      5-min Rain = 0
KWE2 242151Z 32004KT 25/M03 A3002 RMK A01 T02541030  RH  015%=      5-min Rain = 0
KWE2 242152Z 34006KT 26/M03 A3002 RMK A01 T02561025  RH  016%=      5-min Rain = 0
KWE2 242153Z 32004KT 25/M03 A3002 RMK A01 T02531029  RH  015%=      5-min Rain = 0
KWE2 242154Z 31002KT 25/M03 A3002 RMK A01 T02511028  RH  016%=      5-min Rain = 0
KWE2 242155Z 33003KT 25/M03 A3002 RMK A01 T02511027  RH  016%=      5-min Rain = 0
KWE2 242156Z 34006KT 25/M03 A3002 RMK A01 T02511025  RH  016%=      5-min Rain = 0
KWE2 242157Z 33007KT 25/M03 A3002 RMK A01 T02521026  RH  016%=      5-min Rain = 0
KWE2 242158Z 29009KT 26/M03 A3002 RMK A01 T02551026  RH  016%=      5-min Rain = 0
KWE2 242159Z 30008KT 26/M03 A3002 RMK A01 T02581032  RH  014%=      5-min Rain = 0
KWE2 242200Z 32004KT 26/M03 A3002 RMK A01 T02571030  RH  015%=      5-min Rain = 0
KWE2 242201Z 31003KT 26/M03 A3002 RMK A01 T02561028  RH  015%=      5-min Rain = 0
KWE2 242202Z 29007G14KT 26/M03 A3002 RMK A01 T02551031  RH  015%=      5-min Rain = 0
KWE2 242203Z 30010KT 26/M03 A3002 RMK A01 T02561033  RH  015%=      5-min Rain = 0
KWE2 242204Z 30011KT 26/M03 A3002 RMK A01 T02601031  RH  015%=      5-min Rain = 0
KWE2 242205Z 28009KT 26/M03 A3002 RMK A01 T02611033  RH  014%=      5-min Rain = 0
KWE2 242206Z 26008KT 26/M04 A3002 RMK A01 T02611036  RH  014%=      5-min Rain = 0
KWE2 242207Z 29007KT 26/M03 A3002 RMK A01 T02611032  RH  014%=      5-min Rain = 0
KWE2 242208Z 29010KT 26/M03 A3002 RMK A01 T02621030  RH  014%=      5-min Rain = 0
KWE2 242209Z 29006KT 26/M03 A3002 RMK A01 T02611031  RH  014%=      5-min Rain = 0
KWE2 242210Z 32007KT 26/M03 A3002 RMK A01 T02591030  RH  015%=      5-min Rain = 0
KWE2 242211Z 26007KT 26/M03 A3002 RMK A01 T02591025  RH  015%=      5-min Rain = 0
KWE2 242212Z 25005KT 26/M03 A3002 RMK A01 T02621031  RH  014%=      5-min Rain = 0
KWE2 242213Z 27008KT 26/M03 A3002 RMK A01 T02621032  RH  014%=      5-min Rain = 0
KWE2 242214Z 23010KT 26/M03 A3002 RMK A01 T02621031  RH  014%=      5-min Rain = 0
KWE2 242215Z 23009KT 26/M04 A3002 RMK A01 T02601036  RH  014%=      5-min Rain = 0
KWE2 242216Z 21005KT 26/M03 A3002 RMK A01 T02571033  RH  015%=      5-min Rain = 0
KWE2 242217Z 24006KT 26/M03 A3002 RMK A01 T02571030  RH  015%=      5-min Rain = 0
KWE2 242218Z 26007KT 26/M03 A3002 RMK A01 T02581033  RH  014%=      5-min Rain = 0
KWE2 242219Z 27010KT 26/M03 A3002 RMK A01 T02591030  RH  015%=      5-min Rain = 0
KWE2 242220Z 26010KT 26/M03 A3002 RMK A01 T02601031  RH  014%=      5-min Rain = 0
KWE2 242221Z 26007KT 26/M03 A3002 RMK A01 T02601034  RH  014%=      5-min Rain = 0
KWE2 242222Z 27007KT 26/M03 A3002 RMK A01 T02561034  RH  014%=      5-min Rain = 0
KWE2 242223Z 26004KT 26/M04 A3002 RMK A01 T02561036  RH  014%=      5-min Rain = 0
KWE2 242224Z 27004KT 26/M04 A3002 RMK A01 T02561035  RH  014%=      5-min Rain = 0
KWE2 242225Z 26008KT 26/M04 A3002 RMK A01 T02561036  RH  014%=      5-min Rain = 0
KWE2 242226Z 24009KT 26/M04 A3002 RMK A01 T02561037  RH  014%=      5-min Rain = 0
KWE2 242227Z 25009KT 26/M03 A3002 RMK A01 T02561034  RH  015%=      5-min Rain = 0
KWE2 242228Z 27005KT 26/M04 A3002 RMK A01 T02561035  RH  014%=      5-min Rain = 0
KWE2 242229Z 28007KT 26/M03 A3002 RMK A01 T02561033  RH  015%=      5-min Rain = 0
KWE2 242230Z 29008KT 26/M03 A3002 RMK A01 T02571033  RH  015%=      5-min Rain = 0
KWE2 242231Z 28006KT 26/M03 A3002 RMK A01 T02581033  RH  014%=      5-min Rain = 0
KWE2 242232Z 29006KT 26/M03 A3002 RMK A01 T02581034  RH  014%=      5-min Rain = 0
KWE2 242233Z 30004KT 26/M04 A3002 RMK A01 T02571035  RH  014%=      5-min Rain = 0
KWE2 242234Z 30002KT 26/M03 A3002 RMK A01 T02551034  RH  015%=      5-min Rain = 0
KWE2 242235Z 33004KT 25/M03 A3002 RMK A01 T02541032  RH  015%=      5-min Rain = 0
KWE2 242236Z 34007KT 25/M03 A3002 RMK A01 T02541026  RH  016%=      5-min Rain = 0
KWE2 242237Z 31009KT 25/M03 A3002 RMK A01 T02541028  RH  015%=      5-min Rain = 0
KWE2 242238Z 31007KT 25/M03 A3002 RMK A01 T02541031  RH  015%=      5-min Rain = 0
KWE2 242239Z 32007KT 25/M03 A3002 RMK A01 T02531029  RH  015%=      5-min Rain = 0
KWE2 242240Z 34008KT 25/M03 A3002 RMK A01 T02541028  RH  015%=      5-min Rain = 0
KWE2 242241Z 33010KT 25/M03 A3002 RMK A01 T02541027  RH  015%=      5-min Rain = 0
KWE2 242242Z 31008KT 26/M03 A3002 RMK A01 T02551029  RH  015%=      5-min Rain = 0
KWE2 242243Z 34008KT 26/M03 A3002 RMK A01 T02561030  RH  015%=      5-min Rain = 0
KWE2 242244Z 33007KT 26/M03 A3002 RMK A01 T02561030  RH  015%=      5-min Rain = 0
KWE2 242245Z 34006KT 25/M03 A3002 RMK A01 T02541028  RH  015%=      5-min Rain = 0
KWE2 242246Z 31009KT 25/M03 A3002 RMK A01 T02541027  RH  015%=      5-min Rain = 0
KWE2 242247Z 31010KT 26/M03 A3002 RMK A01 T02551032  RH  015%=      5-min Rain = 0
KWE2 242248Z 32007KT 26/M03 A3002 RMK A01 T02551032  RH  015%=      5-min Rain = 0
KWE2 242249Z 31010KT 26/M03 A3002 RMK A01 T02551030  RH  015%=      5-min Rain = 0
KWE2 242250Z 32009KT 26/M03 A3002 RMK A01 T02551033  RH  015%=      5-min Rain = 0
KWE2 242251Z 33007KT 25/M03 A3001 RMK A01 T02541030  RH  015%=      5-min Rain = 0
KWE2 242252Z 33007KT 25/M03 A3001 RMK A01 T02541032  RH  015%=      5-min Rain = 0
KWE2 242253Z 34008KT 25/M03 A3001 RMK A01 T02531030  RH  015%=      5-min Rain = 0
KWE2 242254Z 34010KT 25/M03 A3001 RMK A01 T02521026  RH  016%=      5-min Rain = 0
KWE2 242255Z 32008KT 25/M03 A3002 RMK A01 T02531029  RH  015%=      5-min Rain = 0
KWE2 242256Z 31008KT 25/M03 A3002 RMK A01 T02531032  RH  015%=      5-min Rain = 0
KWE2 242257Z 33007KT 25/M03 A3002 RMK A01 T02531029  RH  015%=      5-min Rain = 0
KWE2 242258Z 33011KT 26/M03 A3002 RMK A01 T02551029  RH  015%=      5-min Rain = 0
KWE2 242259Z 33008KT 25/M03 A3002 RMK A01 T02531032  RH  015%=      5-min Rain = 0
KWE2 242300Z 35007KT 25/M03 A3002 RMK A01 T02521029  RH  015%=      5-min Rain = 0
KWE2 242301Z 36009KT 25/M02 A3002 RMK A01 T02521023  RH  016%=      5-min Rain = 0
KWE2 242302Z 01008KT 25/M02 A3002 RMK A01 T02521022  RH  016%=      5-min Rain = 0
KWE2 242303Z 00009KT 25/M02 A3002 RMK A01 T02511021  RH  016%=      5-min Rain = 0
KWE2 242304Z 35008KT 25/M02 A3002 RMK A01 T02511019  RH  017%=      5-min Rain = 0
KWE2 242305Z 35006KT 25/M02 A3002 RMK A01 T02511024  RH  016%=      5-min Rain = 0
KWE2 242306Z 34006KT 25/M02 A3002 RMK A01 T02501021  RH  017%=      5-min Rain = 0
KWE2 242307Z 00007KT 25/M02 A3002 RMK A01 T02501023  RH  016%=      5-min Rain = 0
KWE2 242308Z 00008KT 25/M02 A3002 RMK A01 T02501020  RH  017%=      5-min Rain = 0
KWE2 242309Z 35010KT 25/M02 A3002 RMK A01 T02501016  RH  017%=      5-min Rain = 0
KWE2 242310Z 33011KT 25/M02 A3002 RMK A01 T02511019  RH  017%=      5-min Rain = 0
KWE2 242311Z 34009KT 25/M02 A3002 RMK A01 T02501020  RH  017%=      5-min Rain = 0
KWE2 242312Z 34008KT 25/M02 A3002 RMK A01 T02501018  RH  017%=      5-min Rain = 0
KWE2 242313Z 34007KT 25/M02 A3002 RMK A01 T02501020  RH  017%=      5-min Rain = 0
KWE2 242314Z 33006KT 25/M02 A3002 RMK A01 T02501020  RH  017%=      5-min Rain = 0
KWE2 242315Z 33006KT 25/M02 A3002 RMK A01 T02511018  RH  017%=      5-min Rain = 0
KWE2 242316Z 35004KT 25/M02 A3002 RMK A01 T02511019  RH  017%=      5-min Rain = 0
KWE2 242317Z 00006KT 25/M02 A3002 RMK A01 T02511016  RH  017%=      5-min Rain = 0
KWE2 242318Z 35008KT 25/M01 A3002 RMK A01 T02501014  RH  017%=      5-min Rain = 0
KWE2 242319Z 36008KT 25/M02 A3002 RMK A01 T02501018  RH  017%=      5-min Rain = 0
KWE2 242320Z 01010KT 25/M01 A3002 RMK A01 T02501014  RH  017%=      5-min Rain = 0
KWE2 242321Z 01009KT 25/M02 A3002 RMK A01 T02491017  RH  017%=      5-min Rain = 0
KWE2 242322Z 02008KT 25/M01 A3002 RMK A01 T02481011  RH  018%=      5-min Rain = 0
KWE2 242323Z 03008KT 25/M02 A3002 RMK A01 T02461015  RH  018%=      5-min Rain = 0
KWE2 242324Z 02008KT 25/M01 A3002 RMK A01 T02451013  RH  018%=      5-min Rain = 0
KWE2 242325Z 00008KT 25/M01 A3002 RMK A01 T02451012  RH  018%=      5-min Rain = 0
KWE2 242326Z 36008KT 25/M01 A3002 RMK A01 T02461011  RH  018%=      5-min Rain = 0
KWE2 242327Z 34010KT 25/M02 A3002 RMK A01 T02481020  RH  017%=      5-min Rain = 0
KWE2 242328Z 36008KT 25/M02 A3002 RMK A01 T02481018  RH  017%=      5-min Rain = 0
KWE2 242329Z 00007KT 25/M01 A3002 RMK A01 T02491013  RH  018%=      5-min Rain = 0
KWE2 242330Z 01010KT 25/M01 A3002 RMK A01 T02481013  RH  018%=      5-min Rain = 0
KWE2 242331Z 02010KT 25/M01 A3002 RMK A01 T02471012  RH  018%=      5-min Rain = 0
KWE2 242332Z 02009KT 25/M01 A3002 RMK A01 T02461009  RH  018%=      5-min Rain = 0
KWE2 242333Z 02008KT 25/M01 A3002 RMK A01 T02451014  RH  018%=      5-min Rain = 0
KWE2 242334Z 03007KT 25/M01 A3002 RMK A01 T02451012  RH  018%=      5-min Rain = 0
KWE2 242335Z 01006KT 24/M01 A3002 RMK A01 T02441010  RH  019%=      5-min Rain = 0
KWE2 242336Z 02007KT 24/M01 A3002 RMK A01 T02441006  RH  019%=      5-min Rain = 0
KWE2 242337Z 01008KT 24/M01 A3002 RMK A01 T02441011  RH  019%=      5-min Rain = 0
KWE2 242338Z 00009KT 24/M01 A3002 RMK A01 T02441010  RH  019%=      5-min Rain = 0
KWE2 242339Z 35007KT 24/M02 A3002 RMK A01 T02441017  RH  018%=      5-min Rain = 0
KWE2 242340Z 35005KT 25/M02 A3002 RMK A01 T02451017  RH  018%=      5-min Rain = 0
KWE2 242341Z 00006KT 25/M01 A3002 RMK A01 T02451010  RH  019%=      5-min Rain = 0
KWE2 242342Z 00007KT 25/M01 A3002 RMK A01 T02451012  RH  018%=      5-min Rain = 0
KWE2 242343Z 36007KT 25/M02 A3002 RMK A01 T02451017  RH  018%=      5-min Rain = 0
KWE2 242344Z 35007KT 25/M02 A3003 RMK A01 T02451015  RH  018%=      5-min Rain = 0
KWE2 242345Z 35006KT 25/M02 A3003 RMK A01 T02461019  RH  017%=      5-min Rain = 0
KWE2 242346Z 35006KT 25/M02 A3003 RMK A01 T02461016  RH  018%=      5-min Rain = 0
KWE2 242347Z 35006KT 25/M02 A3003 RMK A01 T02471021  RH  017%=      5-min Rain = 0
KWE2 242348Z 00006KT 25/M02 A3003 RMK A01 T02461021  RH  017%=      5-min Rain = 0
KWE2 242349Z 35006KT 25/M02 A3003 RMK A01 T02451017  RH  018%=      5-min Rain = 0
KWE2 242350Z 35006KT 25/M02 A3003 RMK A01 T02451017  RH  018%=      5-min Rain = 0
KWE2 242351Z 36006KT 25/M01 A3003 RMK A01 T02451013  RH  018%=      5-min Rain = 0
KWE2 242352Z 01007KT 25/M01 A3003 RMK A01 T02451012  RH  018%=      5-min Rain = 0
KWE2 242353Z 01007KT 24/M02 A3003 RMK A01 T02441018  RH  018%=      5-min Rain = 0
KWE2 242354Z 01005KT 24/M02 A3003 RMK A01 T02431019  RH  018%=      5-min Rain = 0
KWE2 242355Z 00006KT 24/M02 A3003 RMK A01 T02421016  RH  018%=      5-min Rain = 0
KWE2 242356Z 01007KT 24/M01 A3003 RMK A01 T02421013  RH  018%=      5-min Rain = 0
KWE2 242357Z 01007KT 24/M01 A3003 RMK A01 T02421012  RH  019%=      5-min Rain = 0
KWE2 242358Z 02006KT 24/M02 A3003 RMK A01 T02421016  RH  018%=      5-min Rain = 0
KWE2 242359Z 02008KT 24/M01 A3003 RMK A01 T02411010  RH  019%=      5-min Rain = 0
KWE2 250000Z 02008KT 24/M01 A3003 RMK A01 T02401013  RH  019%=      5-min Rain = 0
KWE2 250001Z 01007KT 24/M01 A3003 RMK A01 T02391009  RH  019%=      5-min Rain = 0
KWE2 250002Z 02007KT 24/M01 A3003 RMK A01 T02391008  RH  019%=      5-min Rain = 0
KWE2 250003Z 02007KT 24/M00 A3003 RMK A01 T02381003  RH  020%=      5-min Rain = 0
KWE2 250004Z 02007KT 24/M01 A3003 RMK A01 T02381007  RH  020%=      5-min Rain = 0
KWE2 250005Z 02008KT 24/M01 A3003 RMK A01 T02381010  RH  019%=      5-min Rain = 0
KWE2 250006Z 01008KT 24/M01 A3003 RMK A01 T02381010  RH  019%=      5-min Rain = 0
KWE2 250007Z 02008KT 24/M01 A3003 RMK A01 T02371011  RH  019%=      5-min Rain = 0
KWE2 250008Z 02007KT 24/M01 A3003 RMK A01 T02371011  RH  019%=      5-min Rain = 0
KWE2 250009Z 01008KT 24/M01 A3003 RMK A01 T02371011  RH  019%=      5-min Rain = 0
KWE2 250010Z 01007KT 24/M01 A3003 RMK A01 T02371013  RH  019%=      5-min Rain = 0
KWE2 250011Z 01009KT 24/M01 A3003 RMK A01 T02371011  RH  019%=      5-min Rain = 0
KWE2 250012Z 00008KT 24/M01 A3003 RMK A01 T02371012  RH  019%=      5-min Rain = 0
KWE2 250013Z 00007KT 24/M01 A3003 RMK A01 T02371010  RH  019%=      5-min Rain = 0
KWE2 250014Z 00007KT 24/M01 A3003 RMK A01 T02371012  RH  019%=      5-min Rain = 0
KWE2 250015Z 00007KT 24/M02 A3003 RMK A01 T02371016  RH  019%=      5-min Rain = 0
KWE2 250016Z 36007KT 24/M02 A3003 RMK A01 T02381016  RH  019%=      5-min Rain = 0
KWE2 250017Z 01006KT 24/M01 A3003 RMK A01 T02381014  RH  019%=      5-min Rain = 0
KWE2 250018Z 01006KT 24/M01 A3003 RMK A01 T02371012  RH  019%=      5-min Rain = 0
KWE2 250019Z 01006KT 24/M01 A3003 RMK A01 T02351006  RH  020%=      5-min Rain = 0
KWE2 250020Z 02005KT 23/M01 A3003 RMK A01 T02341009  RH  020%=      5-min Rain = 0
KWE2 250021Z 02005KT 23/M00 A3003 RMK A01 T02331003  RH  021%=      5-min Rain = 0
KWE2 250022Z 02005KT 23/00 A3003 RMK A01 T02310001  RH  022%=      5-min Rain = 0
KWE2 250023Z 02004KT 23/00 A3003 RMK A01 T02290002  RH  022%=      5-min Rain = 0
KWE2 250024Z 01005KT 23/00 A3003 RMK A01 T02280002  RH  022%=      5-min Rain = 0
KWE2 250025Z 01005KT 23/M00 A3003 RMK A01 T02271002  RH  022%=      5-min Rain = 0
KWE2 250026Z 01004KT 23/M00 A3003 RMK A01 T02271004  RH  022%=      5-min Rain = 0
KWE2 250027Z 01004KT 23/M00 A3003 RMK A01 T02271003  RH  022%=      5-min Rain = 0
KWE2 250028Z 02004KT 23/M00 A3003 RMK A01 T02271002  RH  022%=      5-min Rain = 0
KWE2 250029Z 02004KT 23/M00 A3003 RMK A01 T02271002  RH  022%=      5-min Rain = 0
KWE2 250030Z 02004KT 23/M00 A3003 RMK A01 T02261001  RH  022%=      5-min Rain = 0
KWE2 250031Z 02005KT 23/00 A3003 RMK A01 T02250000  RH  023%=      5-min Rain = 0
KWE2 250032Z 02004KT 22/01 A3003 RMK A01 T02230005  RH  024%=      5-min Rain = 0
KWE2 250033Z 02004KT 22/M00 A3003 RMK A01 T02221001  RH  023%=      5-min Rain = 0
KWE2 250034Z 02004KT 22/M00 A3003 RMK A01 T02211003  RH  022%=      5-min Rain = 0
KWE2 250035Z 02003KT 22/M00 A3003 RMK A01 T02211003  RH  022%=      5-min Rain = 0
KWE2 250036Z 03003KT 22/00 A3003 RMK A01 T02220000  RH  023%=      5-min Rain = 0
KWE2 250037Z 03003KT 22/00 A3003 RMK A01 T02210004  RH  024%=      5-min Rain = 0
KWE2 250038Z 04003KT 22/00 A3003 RMK A01 T02210001  RH  023%=      5-min Rain = 0
KWE2 250039Z 03004KT 22/00 A3003 RMK A01 T02210002  RH  023%=      5-min Rain = 0
KWE2 250040Z 04004KT 22/01 A3003 RMK A01 T02200006  RH  024%=      5-min Rain = 0
KWE2 250041Z 04003KT 22/01 A3003 RMK A01 T02200008  RH  024%=      5-min Rain = 0
KWE2 250042Z 05003KT 22/01 A3003 RMK A01 T02190005  RH  024%=      5-min Rain = 0
KWE2 250043Z 05003KT 22/M00 A3003 RMK A01 T02191002  RH  023%=      5-min Rain = 0
KWE2 250044Z 05003KT 22/M01 A3003 RMK A01 T02201006  RH  022%=      5-min Rain = 0
KWE2 250045Z 05003KT 22/M01 A3003 RMK A01 T02221005  RH  022%=      5-min Rain = 0
KWE2 250046Z 04003KT 22/M01 A3003 RMK A01 T02231005  RH  022%=      5-min Rain = 0
KWE2 250047Z 04003KT 22/M00 A3004 RMK A01 T02231003  RH  022%=      5-min Rain = 0
KWE2 250048Z 04003KT 22/M00 A3004 RMK A01 T02231003  RH  022%=      5-min Rain = 0
KWE2 250049Z 04003KT 22/00 A3004 RMK A01 T022300-0  RH  023%=      5-min Rain = 0
KWE2 250050Z 04003KT 22/00 A3004 RMK A01 T02220003  RH  023%=      5-min Rain = 0
KWE2 250051Z 04003KT 22/00 A3004 RMK A01 T02210004  RH  024%=      5-min Rain = 0
KWE2 250052Z 05003KT 22/01 A3004 RMK A01 T02200005  RH  024%=      5-min Rain = 0
KWE2 250053Z 06004KT 22/00 A3004 RMK A01 T02190003  RH  024%=      5-min Rain = 0
KWE2 250054Z 06003KT 22/00 A3004 RMK A01 T02180001  RH  023%=      5-min Rain = 0
KWE2 250055Z 06003KT 22/00 A3004 RMK A01 T02180001  RH  024%=      5-min Rain = 0
KWE2 250056Z 06004KT 22/00 A3004 RMK A01 T02180002  RH  024%=      5-min Rain = 0
KWE2 250057Z 05004KT 22/00 A3004 RMK A01 T02180003  RH  024%=      5-min Rain = 0
KWE2 250058Z 06004KT 22/00 A3004 RMK A01 T02170004  RH  024%=      5-min Rain = 0
KWE2 250059Z 06004KT 22/00 A3004 RMK A01 T02160003  RH  024%=      5-min Rain = 0
KWE2 250100Z 06004KT 22/00 A3004 RMK A01 T02150003  RH  024%=      5-min Rain = 0
KWE2 250101Z 06004KT 22/00 A3004 RMK A01 T02150001  RH  024%=      5-min Rain = 0
KWE2 250102Z 05004KT 22/M00 A3004 RMK A01 T02151001  RH  024%=      5-min Rain = 0
KWE2 250103Z 05004KT 21/00 A3004 RMK A01 T02140001  RH  024%=      5-min Rain = 0
KWE2 250104Z 05004KT 21/00 A3004 RMK A01 T02130001  RH  024%=      5-min Rain = 0
KWE2 250105Z 05003KT 21/00 A3004 RMK A01 T02130004  RH  025%=      5-min Rain = 0
KWE2 250106Z 05004KT 21/00 A3004 RMK A01 T02120004  RH  025%=      5-min Rain = 0
KWE2 250107Z 05004KT 21/00 A3004 RMK A01 T02110000  RH  024%=      5-min Rain = 0
KWE2 250108Z 05004KT 21/00 A3004 RMK A01 T02110001  RH  025%=      5-min Rain = 0
KWE2 250109Z 05004KT 21/00 A3004 RMK A01 T02080003  RH  025%=      5-min Rain = 0
KWE2 250110Z 05005KT 21/01 A3004 RMK A01 T02050005  RH  026%=      5-min Rain = 0
KWE2 250111Z 05005KT 20/01 A3004 RMK A01 T02010006  RH  027%=      5-min Rain = 0
KWE2 250112Z 04006KT 20/01 A3004 RMK A01 T01970006  RH  028%=      5-min Rain = 0
KWE2 250113Z 05006KT 19/00 A3004 RMK A01 T01930003  RH  028%=      5-min Rain = 0
KWE2 250114Z 04006KT 19/00 A3004 RMK A01 T01910002  RH  028%=      5-min Rain = 0
KWE2 250115Z 04006KT 19/00 A3004 RMK A01 T018900-0  RH  028%=      5-min Rain = 0
KWE2 250116Z 04005KT 19/M00 A3004 RMK A01 T01891001  RH  028%=      5-min Rain = 0
KWE2 250117Z 04005KT 19/00 A3004 RMK A01 T01890000  RH  028%=      5-min Rain = 0
KWE2 250118Z 04005KT 19/00 A3004 RMK A01 T018800-0  RH  028%=      5-min Rain = 0
KWE2 250119Z 04005KT 19/00 A3004 RMK A01 T01880003  RH  029%=      5-min Rain = 0
KWE2 250120Z 04006KT 19/00 A3004 RMK A01 T01860003  RH  029%=      5-min Rain = 0
KWE2 250121Z 04006KT 18/00 A3004 RMK A01 T01840004  RH  030%=      5-min Rain = 0
KWE2 250122Z 04006KT 18/00 A3004 RMK A01 T01830002  RH  029%=      5-min Rain = 0
KWE2 250123Z 05006KT 18/00 A3004 RMK A01 T01830001  RH  029%=      5-min Rain = 0
KWE2 250124Z 04006KT 18/00 A3004 RMK A01 T01830001  RH  029%=      5-min Rain = 0
KWE2 250125Z 04006KT 18/00 A3004 RMK A01 T018200-0  RH  029%=      5-min Rain = 0
KWE2 250126Z 04006KT 18/00 A3004 RMK A01 T018200-0  RH  029%=      5-min Rain = 0
KWE2 250127Z 04007KT 18/00 A3004 RMK A01 T01810001  RH  030%=      5-min Rain = 0
KWE2 250128Z 04006KT 18/00 A3005 RMK A01 T017900-0  RH  030%=      5-min Rain = 0
KWE2 250129Z 04006KT 18/00 A3005 RMK A01 T017800-0  RH  030%=      5-min Rain = 0
KWE2 250130Z 04007KT 18/00 A3005 RMK A01 T01760000  RH  030%=      5-min Rain = 0
KWE2 250131Z 04006KT 18/00 A3005 RMK A01 T017500-0  RH  031%=      5-min Rain = 0
KWE2 250132Z 04006KT 17/00 A3005 RMK A01 T017400-0  RH  031%=      5-min Rain = 0
KWE2 250133Z 04006KT 17/00 A3005 RMK A01 T01730000  RH  031%=      5-min Rain = 0
KWE2 250134Z 04006KT 17/00 A3005 RMK A01 T01730000  RH  031%=      5-min Rain = 0
KWE2 250135Z 04005KT 17/00 A3005 RMK A01 T017200-0  RH  031%=      5-min Rain = 0
KWE2 250136Z 05005KT 17/00 A3005 RMK A01 T01720001  RH  031%=      5-min Rain = 0
KWE2 250137Z 05006KT 17/00 A3005 RMK A01 T01730001  RH  031%=      5-min Rain = 0
KWE2 250138Z 05006KT 17/00 A3005 RMK A01 T01730000  RH  031%=      5-min Rain = 0
KWE2 250139Z 05006KT 17/00 A3005 RMK A01 T01730001  RH  031%=      5-min Rain = 0
KWE2 250140Z 06005KT 17/00 A3005 RMK A01 T01730001  RH  031%=      5-min Rain = 0
KWE2 250141Z 06007KT 17/M00 A3005 RMK A01 T01741001  RH  030%=      5-min Rain = 0
KWE2 250142Z 05006KT 18/00 A3005 RMK A01 T01750001  RH  031%=      5-min Rain = 0
KWE2 250143Z 05007KT 18/00 A3005 RMK A01 T017500-0  RH  030%=      5-min Rain = 0
KWE2 250144Z 05007KT 18/00 A3005 RMK A01 T01750000  RH  031%=      5-min Rain = 0
KWE2 250145Z 05007KT 18/00 A3005 RMK A01 T017500-0  RH  031%=      5-min Rain = 0
KWE2 250146Z 05007KT 17/00 A3005 RMK A01 T017400-0  RH  031%=      5-min Rain = 0
KWE2 250147Z 05007KT 17/00 A3005 RMK A01 T017300-0  RH  031%=      5-min Rain = 0
KWE2 250148Z 05007KT 17/M00 A3005 RMK A01 T01731001  RH  031%=      5-min Rain = 0
KWE2 250149Z 05007KT 17/M00 A3005 RMK A01 T01731001  RH  031%=      5-min Rain = 0
KWE2 250150Z 05007KT 17/00 A3005 RMK A01 T017300-0  RH  031%=      5-min Rain = 0
KWE2 250151Z 05007KT 17/M00 A3005 RMK A01 T01721001  RH  031%=      5-min Rain = 0
KWE2 250152Z 05008KT 17/M00 A3005 RMK A01 T01721002  RH  031%=      5-min Rain = 0
KWE2 250153Z 05007KT 17/M00 A3006 RMK A01 T01731002  RH  031%=      5-min Rain = 0
KWE2 250154Z 05007KT 17/M00 A3006 RMK A01 T01721001  RH  031%=      5-min Rain = 0
KWE2 250155Z 05006KT 17/M00 A3006 RMK A01 T01711002  RH  031%=      5-min Rain = 0
KWE2 250156Z 05006KT 17/M00 A3006 RMK A01 T01711002  RH  031%=      5-min Rain = 0
KWE2 250157Z 06006KT 17/M00 A3006 RMK A01 T01681001  RH  032%=      5-min Rain = 0
KWE2 250158Z 06006KT 17/M00 A3006 RMK A01 T01661001  RH  032%=      5-min Rain = 0
KWE2 250159Z 06007KT 17/M00 A3006 RMK A01 T01661001  RH  032%=      5-min Rain = 0
KWE2 250200Z 06007KT 17/M00 A3006 RMK A01 T01661001  RH  032%=      5-min Rain = 0
KWE2 250201Z 06007KT 17/M00 A3006 RMK A01 T01661002  RH  032%=      5-min Rain = 0
KWE2 250202Z 06008KT 17/M00 A3006 RMK A01 T01671002  RH  032%=      5-min Rain = 0
KWE2 250203Z 06007KT 17/M00 A3006 RMK A01 T01671003  RH  031%=      5-min Rain = 0
KWE2 250204Z 06007KT 17/M00 A3006 RMK A01 T01681002  RH  031%=      5-min Rain = 0
KWE2 250205Z 06007KT 17/M00 A3006 RMK A01 T01681003  RH  031%=      5-min Rain = 0
KWE2 250206Z 06007KT 17/M00 A3006 RMK A01 T01681003  RH  031%=      5-min Rain = 0
KWE2 250207Z 06007KT 17/M00 A3006 RMK A01 T01691003  RH  031%=      5-min Rain = 0
KWE2 250208Z 06007KT 17/M00 A3006 RMK A01 T01691002  RH  031%=      5-min Rain = 0
KWE2 250209Z 06008KT 17/M00 A3006 RMK A01 T01691003  RH  031%=      5-min Rain = 0
KWE2 250210Z 06007KT 17/M00 A3006 RMK A01 T01701003  RH  031%=      5-min Rain = 0
KWE2 250211Z 06007KT 17/M00 A3006 RMK A01 T01711003  RH  031%=      5-min Rain = 0
KWE2 250212Z 06006KT 17/M00 A3006 RMK A01 T01711003  RH  031%=      5-min Rain = 0
KWE2 250213Z 06006KT 17/M00 A3006 RMK A01 T01701003  RH  031%=      5-min Rain = 0
KWE2 250214Z 06007KT 17/M00 A3006 RMK A01 T01701004  RH  031%=      5-min Rain = 0
KWE2 250215Z 06007KT 17/M00 A3006 RMK A01 T01701003  RH  031%=      5-min Rain = 0
KWE2 250216Z 06006KT 17/M00 A3007 RMK A01 T01701003  RH  031%=      5-min Rain = 0
KWE2 250217Z 06006KT 17/M00 A3007 RMK A01 T01691003  RH  031%=      5-min Rain = 0
KWE2 250218Z 06006KT 17/M00 A3007 RMK A01 T01691004  RH  031%=      5-min Rain = 0
KWE2 250219Z 06005KT 17/M00 A3007 RMK A01 T01691004  RH  031%=      5-min Rain = 0
KWE2 250220Z 07006KT 17/M01 A3007 RMK A01 T01681005  RH  031%=      5-min Rain = 0
KWE2 250221Z 07006KT 17/M01 A3007 RMK A01 T01671005  RH  031%=      5-min Rain = 0
KWE2 250222Z 07006KT 17/M01 A3007 RMK A01 T01671005  RH  031%=      5-min Rain = 0
KWE2 250223Z 07006KT 17/M01 A3007 RMK A01 T01661005  RH  031%=      5-min Rain = 0
KWE2 250224Z 07006KT 17/M01 A3007 RMK A01 T01671006  RH  031%=      5-min Rain = 0
KWE2 250225Z 08006KT 17/M01 A3007 RMK A01 T01681006  RH  031%=      5-min Rain = 0
KWE2 250226Z 08005KT 17/M01 A3007 RMK A01 T01681005  RH  031%=      5-min Rain = 0
KWE2 250227Z 07006KT 17/M00 A3007 RMK A01 T01681004  RH  031%=      5-min Rain = 0
KWE2 250228Z 07005KT 17/M01 A3007 RMK A01 T01671005  RH  031%=      5-min Rain = 0
KWE2 250229Z 07006KT 17/M01 A3007 RMK A01 T01671005  RH  031%=      5-min Rain = 0
KWE2 250230Z 07006KT 17/M01 A3007 RMK A01 T01681005  RH  031%=      5-min Rain = 0
KWE2 250231Z 07005KT 17/M01 A3007 RMK A01 T01681005  RH  031%=      5-min Rain = 0
KWE2 250232Z 07006KT 17/M00 A3007 RMK A01 T01681004  RH  031%=      5-min Rain = 0
KWE2 250233Z 06006KT 17/M00 A3007 RMK A01 T01671003  RH  032%=      5-min Rain = 0
KWE2 250234Z 06006KT 17/M00 A3008 RMK A01 T01661003  RH  032%=      5-min Rain = 0
KWE2 250235Z 06006KT 17/M00 A3008 RMK A01 T01651002  RH  032%=      5-min Rain = 0
KWE2 250236Z 06006KT 16/M00 A3008 RMK A01 T01641003  RH  032%=      5-min Rain = 0
KWE2 250237Z 06006KT 16/M00 A3008 RMK A01 T01641003  RH  032%=      5-min Rain = 0
KWE2 250238Z 06007KT 16/M00 A3008 RMK A01 T01641003  RH  032%=      5-min Rain = 0
KWE2 250239Z 06006KT 17/M00 A3008 RMK A01 T01651004  RH  032%=      5-min Rain = 0
KWE2 250240Z 06007KT 17/M01 A3008 RMK A01 T01661005  RH  031%=      5-min Rain = 0
KWE2 250241Z 07006KT 17/M01 A3008 RMK A01 T01681005  RH  031%=      5-min Rain = 0
KWE2 250242Z 07006KT 17/M01 A3008 RMK A01 T01701006  RH  030%=      5-min Rain = 0
KWE2 250243Z 07007KT 17/M01 A3008 RMK A01 T01711006  RH  030%=      5-min Rain = 0
KWE2 250244Z 07006KT 17/M01 A3008 RMK A01 T01721007  RH  029%=      5-min Rain = 0
KWE2 250245Z 08006KT 17/M01 A3008 RMK A01 T01741007  RH  029%=      5-min Rain = 0
KWE2 250246Z 08006KT 17/M01 A3008 RMK A01 T01741005  RH  030%=      5-min Rain = 0
KWE2 250247Z 08006KT 17/M01 A3008 RMK A01 T01731005  RH  030%=      5-min Rain = 0
KWE2 250248Z 08006KT 17/M01 A3008 RMK A01 T01721005  RH  030%=      5-min Rain = 0
KWE2 250249Z 08006KT 17/M01 A3008 RMK A01 T01721005  RH  030%=      5-min Rain = 0
KWE2 250250Z 08006KT 17/M01 A3008 RMK A01 T01731005  RH  030%=      5-min Rain = 0
KWE2 250251Z 08006KT 17/M01 A3008 RMK A01 T01731005  RH  030%=      5-min Rain = 0
KWE2 250252Z 08006KT 17/M01 A3008 RMK A01 T01741005  RH  030%=      5-min Rain = 0
KWE2 250253Z 08005KT 18/M01 A3008 RMK A01 T01751005  RH  030%=      5-min Rain = 0
KWE2 250254Z 08006KT 18/M00 A3008 RMK A01 T01751004  RH  030%=      5-min Rain = 0
KWE2 250255Z 08005KT 17/M00 A3008 RMK A01 T01741003  RH  030%=      5-min Rain = 0
KWE2 250256Z 08004KT 17/M01 A3009 RMK A01 T01691007  RH  030%=      5-min Rain = 0
KWE2 250257Z 08004KT 16/M01 A3009 RMK A01 T01621008  RH  031%=      5-min Rain = 0
KWE2 250258Z 08004KT 16/M01 A3009 RMK A01 T01581007  RH  032%=      5-min Rain = 0
KWE2 250259Z 09005KT 15/M01 A3009 RMK A01 T01541008  RH  033%=      5-min Rain = 0
KWE2 250300Z 09004KT 15/M01 A3009 RMK A01 T01491010  RH  034%=      5-min Rain = 0
KWE2 250301Z 09004KT 15/M01 A3009 RMK A01 T01451009  RH  035%=      5-min Rain = 0
KWE2 250302Z 09005KT 14/M01 A3009 RMK A01 T01431007  RH  036%=      5-min Rain = 0
KWE2 250303Z 08005KT 14/M01 A3009 RMK A01 T01431006  RH  036%=      5-min Rain = 0
KWE2 250304Z 08005KT 15/M00 A3009 RMK A01 T01461003  RH  036%=      5-min Rain = 0
KWE2 250305Z 08005KT 15/M00 A3009 RMK A01 T01491002  RH  036%=      5-min Rain = 0
KWE2 250306Z 08004KT 15/M00 A3009 RMK A01 T01511001  RH  035%=      5-min Rain = 0
KWE2 250307Z 08005KT 15/M00 A3009 RMK A01 T01521001  RH  035%=      5-min Rain = 0
KWE2 250308Z 08004KT 15/00 A3009 RMK A01 T015300-0  RH  035%=      5-min Rain = 0
KWE2 250309Z 08005KT 16/M00 A3009 RMK A01 T01551001  RH  035%=      5-min Rain = 0
KWE2 250310Z 08004KT 16/00 A3009 RMK A01 T01560001  RH  035%=      5-min Rain = 0
KWE2 250311Z 08004KT 16/00 A3009 RMK A01 T01550000  RH  035%=      5-min Rain = 0
KWE2 250312Z 08004KT 15/00 A3009 RMK A01 T01540001  RH  035%=      5-min Rain = 0
KWE2 250313Z 08003KT 15/00 A3009 RMK A01 T01540001  RH  035%=      5-min Rain = 0
KWE2 250314Z 08004KT 15/M00 A3009 RMK A01 T01531001  RH  035%=      5-min Rain = 0
KWE2 250315Z 08004KT 15/M00 A3009 RMK A01 T01531001  RH  035%=      5-min Rain = 0
KWE2 250316Z 09004KT 15/M00 A3009 RMK A01 T01541001  RH  035%=      5-min Rain = 0
KWE2 250317Z 09004KT 15/M00 A3009 RMK A01 T01541003  RH  034%=      5-min Rain = 0
KWE2 250318Z 09005KT 15/M00 A3009 RMK A01 T01531004  RH  034%=      5-min Rain = 0
KWE2 250319Z 09004KT 15/M00 A3009 RMK A01 T01511004  RH  034%=      5-min Rain = 0
KWE2 250320Z 09004KT 15/M01 A3009 RMK A01 T01491005  RH  035%=      5-min Rain = 0
KWE2 250321Z 09005KT 15/M01 A3009 RMK A01 T01471006  RH  035%=      5-min Rain = 0
KWE2 250322Z 09004KT 15/M01 A3009 RMK A01 T01461005  RH  035%=      5-min Rain = 0
KWE2 250323Z 09004KT 15/M00 A301 RMK A01 T01461004  RH  036%=      5-min Rain = 0
KWE2 250324Z 09004KT 15/M00 A301 RMK A01 T01461004  RH  036%=      5-min Rain = 0
KWE2 250325Z 09004KT 15/M01 A301 RMK A01 T01461005  RH  035%=      5-min Rain = 0
KWE2 250326Z 09004KT 15/M00 A301 RMK A01 T01461004  RH  036%=      5-min Rain = 0
KWE2 250327Z 08004KT 15/M00 A301 RMK A01 T01471004  RH  036%=      5-min Rain = 0
KWE2 250328Z 08004KT 15/M00 A301 RMK A01 T01491002  RH  035%=      5-min Rain = 0
KWE2 250329Z 09005KT 15/M00 A301 RMK A01 T01511002  RH  035%=      5-min Rain = 0
KWE2 250330Z 08004KT 15/M00 A301 RMK A01 T01511002  RH  035%=      5-min Rain = 0
KWE2 250331Z 09004KT 15/M00 A301 RMK A01 T01511003  RH  035%=      5-min Rain = 0
KWE2 250332Z 08004KT 15/M00 A301 RMK A01 T01491003  RH  035%=      5-min Rain = 0
KWE2 250333Z 08003KT 15/M00 A301 RMK A01 T01491002  RH  036%=      5-min Rain = 0
KWE2 250334Z 08003KT 15/M00 A301 RMK A01 T01491001  RH  036%=      5-min Rain = 0
KWE2 250335Z 08004KT 15/M00 A301 RMK A01 T01481002  RH  036%=      5-min Rain = 0
KWE2 250336Z 08004KT 15/M00 A301 RMK A01 T01481001  RH  036%=      5-min Rain = 0
KWE2 250337Z 08004KT 15/M00 A301 RMK A01 T01491001  RH  036%=      5-min Rain = 0
KWE2 250338Z 08004KT 15/00 A301 RMK A01 T014900-0  RH  036%=      5-min Rain = 0
KWE2 250339Z 08005KT 15/M00 A301 RMK A01 T01501001  RH  036%=      5-min Rain = 0
KWE2 250340Z 08005KT 15/00 A301 RMK A01 T01510002  RH  036%=      5-min Rain = 0
KWE2 250341Z 08005KT 15/00 A301 RMK A01 T015100-0  RH  036%=      5-min Rain = 0
KWE2 250342Z 09005KT 15/00 A301 RMK A01 T01530001  RH  035%=      5-min Rain = 0
KWE2 250343Z 09005KT 15/00 A301 RMK A01 T01520002  RH  036%=      5-min Rain = 0
KWE2 250344Z 10005KT 15/M01 A301 RMK A01 T01471005  RH  035%=      5-min Rain = 0
KWE2 250345Z 10005KT 14/M01 A301 RMK A01 T01401009  RH  036%=      5-min Rain = 0
KWE2 250346Z 10005KT 13/M01 A3011 RMK A01 T01331008  RH  038%=      5-min Rain = 0
KWE2 250347Z 10005KT 13/M01 A3011 RMK A01 T01291007  RH  039%=      5-min Rain = 0
KWE2 250348Z 10005KT 13/M01 A3011 RMK A01 T01261008  RH  039%=      5-min Rain = 0
KWE2 250349Z 10005KT 12/M01 A3011 RMK A01 T01231009  RH  040%=      5-min Rain = 0
KWE2 250350Z 10005KT 12/M01 A3011 RMK A01 T01211009  RH  041%=      5-min Rain = 0
KWE2 250351Z 10005KT 12/M01 A3011 RMK A01 T01201010  RH  041%=      5-min Rain = 0
KWE2 250352Z 10004KT 12/M01 A3011 RMK A01 T01181012  RH  040%=      5-min Rain = 0
KWE2 250353Z 10004KT 12/M01 A3011 RMK A01 T01171011  RH  041%=      5-min Rain = 0
KWE2 250354Z 10004KT 12/M01 A3011 RMK A01 T01171011  RH  041%=      5-min Rain = 0
KWE2 250355Z 10004KT 12/M01 A3011 RMK A01 T01171010  RH  041%=      5-min Rain = 0
KWE2 250356Z 09004KT 12/M01 A3011 RMK A01 T01171010  RH  041%=      5-min Rain = 0
KWE2 250357Z 09004KT 12/M01 A3011 RMK A01 T01191008  RH  042%=      5-min Rain = 0
KWE2 250358Z 09004KT 12/M01 A3011 RMK A01 T01201006  RH  042%=      5-min Rain = 0
KWE2 250359Z 09004KT 12/M01 A3011 RMK A01 T01221006  RH  041%=      5-min Rain = 0
KWE2 250400Z 09004KT 12/M01 A3011 RMK A01 T01231005  RH  041%=      5-min Rain = 0
KWE2 250401Z 09004KT 12/M00 A3011 RMK A01 T01241003  RH  042%=      5-min Rain = 0
KWE2 250402Z 09004KT 13/M00 A3011 RMK A01 T01251002  RH  042%=      5-min Rain = 0
KWE2 250403Z 09004KT 13/M00 A3011 RMK A01 T01261002  RH  041%=      5-min Rain = 0
KWE2 250404Z 08004KT 13/M00 A3011 RMK A01 T01291001  RH  041%=      5-min Rain = 0
KWE2 250405Z 08004KT 13/00 A3011 RMK A01 T01330000  RH  040%=      5-min Rain = 0
KWE2 250406Z 08003KT 14/00 A3011 RMK A01 T01370001  RH  039%=      5-min Rain = 0
KWE2 250407Z 09003KT 14/00 A3011 RMK A01 T01390001  RH  039%=      5-min Rain = 0
KWE2 250408Z 09004KT 14/00 A3011 RMK A01 T01400001  RH  038%=      5-min Rain = 0
KWE2 250409Z 09004KT 14/00 A3011 RMK A01 T01380000  RH  039%=      5-min Rain = 0
KWE2 250410Z 10004KT 14/00 A3011 RMK A01 T01360000  RH  039%=      5-min Rain = 0
KWE2 250411Z 09004KT 14/00 A3011 RMK A01 T01350000  RH  040%=      5-min Rain = 0
KWE2 250412Z 09003KT 13/00 A3011 RMK A01 T013300-0  RH  040%=      5-min Rain = 0
KWE2 250413Z 08002KT 13/00 A3011 RMK A01 T01310001  RH  041%=      5-min Rain = 0
KWE2 250414Z 09003KT 13/00 A3011 RMK A01 T01310002  RH  041%=      5-min Rain = 0
KWE2 250415Z 08003KT 13/00 A3011 RMK A01 T01310001  RH  041%=      5-min Rain = 0
KWE2 250416Z 09003KT 13/00 A3011 RMK A01 T01300001  RH  041%=      5-min Rain = 0
KWE2 250417Z 09003KT 13/00 A3011 RMK A01 T01290001  RH  041%=      5-min Rain = 0
KWE2 250418Z 09003KT 13/00 A3011 RMK A01 T01280000  RH  041%=      5-min Rain = 0
KWE2 250419Z 09003KT 13/00 A3011 RMK A01 T01280000  RH  041%=      5-min Rain = 0
KWE2 250420Z 09003KT 13/M00 A3011 RMK A01 T01291001  RH  041%=      5-min Rain = 0
KWE2 250421Z 09003KT 13/M00 A3011 RMK A01 T01301001  RH  040%=      5-min Rain = 0
KWE2 250422Z 09004KT 13/M00 A3011 RMK A01 T01321002  RH  040%=      5-min Rain = 0
KWE2 250423Z 09004KT 13/M00 A3011 RMK A01 T01331003  RH  039%=      5-min Rain = 0
KWE2 250424Z 09004KT 13/M00 A3011 RMK A01 T01321003  RH  039%=      5-min Rain = 0
KWE2 250425Z 09004KT 13/M00 A3011 RMK A01 T01331002  RH  040%=      5-min Rain = 0
KWE2 250426Z 09004KT 14/00 A3011 RMK A01 T01350001  RH  040%=      5-min Rain = 0
KWE2 250427Z 09004KT 14/00 A3011 RMK A01 T01370001  RH  039%=      5-min Rain = 0
KWE2 250428Z 08004KT 14/00 A3012 RMK A01 T01390000  RH  039%=      5-min Rain = 0
KWE2 250429Z 09004KT 14/00 A3012 RMK A01 T01390001  RH  039%=      5-min Rain = 0
KWE2 250430Z 08004KT 14/00 A3012 RMK A01 T01400002  RH  039%=      5-min Rain = 0
KWE2 250431Z 09004KT 14/00 A3012 RMK A01 T01410003  RH  039%=      5-min Rain = 0
KWE2 250432Z 08004KT 14/00 A3012 RMK A01 T01410003  RH  039%=      5-min Rain = 0
KWE2 250433Z 08003KT 14/01 A3012 RMK A01 T01400006  RH  040%=      5-min Rain = 0
KWE2 250434Z 08003KT 14/01 A3012 RMK A01 T01370006  RH  041%=      5-min Rain = 0
KWE2 250435Z 09003KT 13/00 A3012 RMK A01 T01340004  RH  041%=      5-min Rain = 0
KWE2 250436Z 09003KT 13/00 A3012 RMK A01 T01330003  RH  041%=      5-min Rain = 0
KWE2 250437Z 09004KT 13/00 A3012 RMK A01 T01320004  RH  041%=      5-min Rain = 0
KWE2 250438Z 09004KT 13/01 A3012 RMK A01 T01320005  RH  042%=      5-min Rain = 0
KWE2 250439Z 09004KT 13/01 A3012 RMK A01 T01340005  RH  041%=      5-min Rain = 0
KWE2 250440Z 09004KT 14/01 A3012 RMK A01 T01350006  RH  041%=      5-min Rain = 0
KWE2 250441Z 09004KT 13/00 A3012 RMK A01 T01340003  RH  041%=      5-min Rain = 0
KWE2 250442Z 10003KT 13/00 A3012 RMK A01 T013200-0  RH  040%=      5-min Rain = 0
KWE2 250443Z 10003KT 13/M00 A3012 RMK A01 T01311002  RH  040%=      5-min Rain = 0
KWE2 250444Z 10004KT 13/M00 A3012 RMK A01 T01311002  RH  040%=      5-min Rain = 0
KWE2 250445Z 10004KT 13/M00 A3012 RMK A01 T01311002  RH  040%=      5-min Rain = 0
KWE2 250446Z 10004KT 13/M00 A3012 RMK A01 T01311003  RH  040%=      5-min Rain = 0
KWE2 250447Z 10004KT 13/M00 A3012 RMK A01 T01301004  RH  040%=      5-min Rain = 0
KWE2 250448Z 10004KT 13/M01 A3012 RMK A01 T01281007  RH  039%=      5-min Rain = 0
KWE2 250449Z 10004KT 13/M01 A3012 RMK A01 T01261007  RH  040%=      5-min Rain = 0
KWE2 250450Z 09003KT 12/M01 A3012 RMK A01 T01241007  RH  040%=      5-min Rain = 0
KWE2 250451Z 08003KT 12/M00 A3012 RMK A01 T01241002  RH  042%=      5-min Rain = 0
KWE2 250452Z 08002KT 12/M00 A3012 RMK A01 T01231001  RH  042%=      5-min Rain = 0
KWE2 250453Z 08002KT 12/00 A3012 RMK A01 T01210000  RH  044%=      5-min Rain = 0
KWE2 250454Z 08002KT 12/00 A3012 RMK A01 T01190001  RH  044%=      5-min Rain = 0
KWE2 250455Z 08001KT 12/M00 A3012 RMK A01 T01161001  RH  044%=      5-min Rain = 0
KWE2 250456Z 08002KT 11/M00 A3012 RMK A01 T01141001  RH  045%=      5-min Rain = 0
KWE2 250457Z 09002KT 12/00 A3012 RMK A01 T01150001  RH  045%=      5-min Rain = 0
KWE2 250458Z 09002KT 12/00 A3012 RMK A01 T01170000  RH  045%=      5-min Rain = 0
KWE2 250459Z 09002KT 12/00 A3012 RMK A01 T01170000  RH  044%=      5-min Rain = 0

Page generated in 0.1217 seconds.